<?xml version="1.0" encoding="utf-8"?>
<gpx xmlns:xsi="http://www.w3.org/2001/XMLSchema-instance" xmlns:xsd="http://www.w3.org/2001/XMLSchema" version="1.1" creator="Shapelink.com" xmlns="http://www.topografix.com/GPX/1/1" xmlns:gpxtpx="http://www.garmin.com/xmlschemas/TrackPointExtension/v1">
  <metadata>
    <name>Gåing 10.32 km, 2018-12-03</name>
    <desc></desc>
    <author><name>Stefan Östlund</name></author> 
    <time>2018-12-03T17:07:31Z</time>
  </metadata>
  <trk>
    <name>Gåing 10.32 km, 2018-12-03</name>
    <trkseg>
      <trkpt lat="60.011561110977" lon="15.790944802039">
        <ele>121.8</ele>
        <time>2018-12-03T17:07:31Z</time>
      </trkpt>
      <trkpt lat="60.011565301927" lon="15.791135993178">
        <ele>121.8</ele>
        <time>2018-12-03T17:07:33Z</time>
      </trkpt>
      <trkpt lat="60.011561362434" lon="15.791687773655">
        <ele>122.4</ele>
        <time>2018-12-03T17:07:38Z</time>
      </trkpt>
      <trkpt lat="60.011537222562" lon="15.791872846007">
        <ele>122.4</ele>
        <time>2018-12-03T17:07:40Z</time>
      </trkpt>
      <trkpt lat="60.011303870466" lon="15.792466200708">
        <ele>122.6</ele>
        <time>2018-12-03T17:07:46Z</time>
      </trkpt>
      <trkpt lat="60.01122139257" lon="15.792680106796">
        <ele>122.8</ele>
        <time>2018-12-03T17:07:48Z</time>
      </trkpt>
      <trkpt lat="60.011155846112" lon="15.792876913808">
        <ele>123</ele>
        <time>2018-12-03T17:07:50Z</time>
      </trkpt>
      <trkpt lat="60.011117289372" lon="15.793072547354">
        <ele>123</ele>
        <time>2018-12-03T17:07:52Z</time>
      </trkpt>
      <trkpt lat="60.011094239147" lon="15.793573952612">
        <ele>123.4</ele>
        <time>2018-12-03T17:07:58Z</time>
      </trkpt>
      <trkpt lat="60.011146374565" lon="15.793818452635">
        <ele>123.8</ele>
        <time>2018-12-03T17:08:03Z</time>
      </trkpt>
      <trkpt lat="60.011208652082" lon="15.793884418188">
        <ele>124.8</ele>
        <time>2018-12-03T17:08:09Z</time>
      </trkpt>
      <trkpt lat="60.011234300696" lon="15.793876874478">
        <ele>125</ele>
        <time>2018-12-03T17:08:13Z</time>
      </trkpt>
      <trkpt lat="60.011234300696" lon="15.793876874478">
        <ele>125</ele>
        <time>2018-12-03T17:08:14Z</time>
      </trkpt>
      <trkpt lat="60.011291549073" lon="15.793747793218">
        <ele>124.4</ele>
        <time>2018-12-03T17:09:37Z</time>
      </trkpt>
      <trkpt lat="60.011338403894" lon="15.793543526315">
        <ele>125</ele>
        <time>2018-12-03T17:09:43Z</time>
      </trkpt>
      <trkpt lat="60.011380732489" lon="15.793445290447">
        <ele>125.4</ele>
        <time>2018-12-03T17:09:49Z</time>
      </trkpt>
      <trkpt lat="60.011521045495" lon="15.793440177488">
        <ele>127.2</ele>
        <time>2018-12-03T17:10:26Z</time>
      </trkpt>
      <trkpt lat="60.011500174564" lon="15.793178159294">
        <ele>127</ele>
        <time>2018-12-03T17:10:32Z</time>
      </trkpt>
      <trkpt lat="60.011525487902" lon="15.793093502104">
        <ele>127</ele>
        <time>2018-12-03T17:10:38Z</time>
      </trkpt>
      <trkpt lat="60.011421887618" lon="15.793161982227">
        <ele>127.4</ele>
        <time>2018-12-03T17:10:44Z</time>
      </trkpt>
      <trkpt lat="60.01139322152" lon="15.79312317403">
        <ele>127.6</ele>
        <time>2018-12-03T17:10:46Z</time>
      </trkpt>
      <trkpt lat="60.011351563477" lon="15.793148487368">
        <ele>127.4</ele>
        <time>2018-12-03T17:10:49Z</time>
      </trkpt>
      <trkpt lat="60.011274114721" lon="15.793217805681">
        <ele>126.8</ele>
        <time>2018-12-03T17:10:55Z</time>
      </trkpt>
      <trkpt lat="60.011269085581" lon="15.793234569481">
        <ele>126.8</ele>
        <time>2018-12-03T17:10:58Z</time>
      </trkpt>
      <trkpt lat="60.011464300032" lon="15.793410337924">
        <ele>127</ele>
        <time>2018-12-03T17:11:16Z</time>
      </trkpt>
      <trkpt lat="60.011511573948" lon="15.793469430319">
        <ele>127</ele>
        <time>2018-12-03T17:11:19Z</time>
      </trkpt>
      <trkpt lat="60.011545436824" lon="15.793535395872">
        <ele>127.2</ele>
        <time>2018-12-03T17:11:25Z</time>
      </trkpt>
      <trkpt lat="60.011488104628" lon="15.793170280308">
        <ele>127.2</ele>
        <time>2018-12-03T17:11:54Z</time>
      </trkpt>
      <trkpt lat="60.011453068286" lon="15.793221577536">
        <ele>127.2</ele>
        <time>2018-12-03T17:11:56Z</time>
      </trkpt>
      <trkpt lat="60.011371512399" lon="15.793310760952">
        <ele>127</ele>
        <time>2018-12-03T17:12:02Z</time>
      </trkpt>
      <trkpt lat="60.011357933721" lon="15.793207244487">
        <ele>125</ele>
        <time>2018-12-03T17:12:24Z</time>
      </trkpt>
      <trkpt lat="60.011345025595" lon="15.793101045814">
        <ele>124.8</ele>
        <time>2018-12-03T17:12:26Z</time>
      </trkpt>
      <trkpt lat="60.011348378355" lon="15.792728470359">
        <ele>124</ele>
        <time>2018-12-03T17:12:31Z</time>
      </trkpt>
      <trkpt lat="60.011347623984" lon="15.792639454581">
        <ele>123.8</ele>
        <time>2018-12-03T17:12:32Z</time>
      </trkpt>
      <trkpt lat="60.011350138554" lon="15.792562927834">
        <ele>123.4</ele>
        <time>2018-12-03T17:12:33Z</time>
      </trkpt>
      <trkpt lat="60.011403531257" lon="15.792361091682">
        <ele>122.8</ele>
        <time>2018-12-03T17:12:36Z</time>
      </trkpt>
      <trkpt lat="60.011489278094" lon="15.792105862827">
        <ele>122.4</ele>
        <time>2018-12-03T17:12:39Z</time>
      </trkpt>
      <trkpt lat="60.0115290083" lon="15.791894219852">
        <ele>122.2</ele>
        <time>2018-12-03T17:12:41Z</time>
      </trkpt>
      <trkpt lat="60.01153152287" lon="15.79155240597">
        <ele>122.2</ele>
        <time>2018-12-03T17:12:44Z</time>
      </trkpt>
      <trkpt lat="60.011509897568" lon="15.790994003792">
        <ele>121.8</ele>
        <time>2018-12-03T17:12:50Z</time>
      </trkpt>
      <trkpt lat="60.011513669423" lon="15.790582368683">
        <ele>121.6</ele>
        <time>2018-12-03T17:12:56Z</time>
      </trkpt>
      <trkpt lat="60.01151559726" lon="15.789905027344">
        <ele>121.8</ele>
        <time>2018-12-03T17:13:02Z</time>
      </trkpt>
      <trkpt lat="60.011559769873" lon="15.78939239034">
        <ele>120.8</ele>
        <time>2018-12-03T17:13:08Z</time>
      </trkpt>
      <trkpt lat="60.011564379918" lon="15.789319719267">
        <ele>120.8</ele>
        <time>2018-12-03T17:13:09Z</time>
      </trkpt>
      <trkpt lat="60.011411074967" lon="15.789044290033">
        <ele>120.8</ele>
        <time>2018-12-03T17:13:15Z</time>
      </trkpt>
      <trkpt lat="60.011383498516" lon="15.789032471554">
        <ele>120.8</ele>
        <time>2018-12-03T17:13:16Z</time>
      </trkpt>
      <trkpt lat="60.011337398066" lon="15.789067507896">
        <ele>120.8</ele>
        <time>2018-12-03T17:13:18Z</time>
      </trkpt>
      <trkpt lat="60.011308229054" lon="15.789187536704">
        <ele>120.6</ele>
        <time>2018-12-03T17:13:21Z</time>
      </trkpt>
      <trkpt lat="60.011401184325" lon="15.789410914339">
        <ele>120.8</ele>
        <time>2018-12-03T17:13:27Z</time>
      </trkpt>
      <trkpt lat="60.011481650565" lon="15.789751722393">
        <ele>120.8</ele>
        <time>2018-12-03T17:13:33Z</time>
      </trkpt>
      <trkpt lat="60.011541832607" lon="15.790179618388">
        <ele>120.8</ele>
        <time>2018-12-03T17:13:39Z</time>
      </trkpt>
      <trkpt lat="60.011518782382" lon="15.790293276952">
        <ele>121.2</ele>
        <time>2018-12-03T17:13:42Z</time>
      </trkpt>
      <trkpt lat="60.011483410764" lon="15.790310962761">
        <ele>121.4</ele>
        <time>2018-12-03T17:13:44Z</time>
      </trkpt>
      <trkpt lat="60.011355754427" lon="15.790319177023">
        <ele>121.4</ele>
        <time>2018-12-03T17:13:50Z</time>
      </trkpt>
      <trkpt lat="60.011042606643" lon="15.790403163661">
        <ele>121.2</ele>
        <time>2018-12-03T17:13:56Z</time>
      </trkpt>
      <trkpt lat="60.010764746658" lon="15.790452113957">
        <ele>121</ele>
        <time>2018-12-03T17:14:02Z</time>
      </trkpt>
      <trkpt lat="60.010643460565" lon="15.790380197255">
        <ele>120.6</ele>
        <time>2018-12-03T17:14:08Z</time>
      </trkpt>
      <trkpt lat="60.010597946848" lon="15.790314064064">
        <ele>120.6</ele>
        <time>2018-12-03T17:14:14Z</time>
      </trkpt>
      <trkpt lat="60.010600042323" lon="15.790299479558">
        <ele>121</ele>
        <time>2018-12-03T17:14:16Z</time>
      </trkpt>
      <trkpt lat="60.010537178073" lon="15.790142821847">
        <ele>121.2</ele>
        <time>2018-12-03T17:14:39Z</time>
      </trkpt>
      <trkpt lat="60.010477247488" lon="15.790016422795">
        <ele>121.2</ele>
        <time>2018-12-03T17:14:41Z</time>
      </trkpt>
      <trkpt lat="60.010180192952" lon="15.789682655537">
        <ele>120.4</ele>
        <time>2018-12-03T17:14:47Z</time>
      </trkpt>
      <trkpt lat="60.009937620766" lon="15.789287700409">
        <ele>120</ele>
        <time>2018-12-03T17:14:53Z</time>
      </trkpt>
      <trkpt lat="60.009868973005" lon="15.789164989393">
        <ele>119.8</ele>
        <time>2018-12-03T17:14:56Z</time>
      </trkpt>
      <trkpt lat="60.009869895014" lon="15.789145711023">
        <ele>119.6</ele>
        <time>2018-12-03T17:14:58Z</time>
      </trkpt>
      <trkpt lat="60.009834020482" lon="15.78910405298">
        <ele>119.2</ele>
        <time>2018-12-03T17:15:03Z</time>
      </trkpt>
      <trkpt lat="60.009767635834" lon="15.789100448763">
        <ele>119.2</ele>
        <time>2018-12-03T17:15:05Z</time>
      </trkpt>
      <trkpt lat="60.009696892598" lon="15.789175802044">
        <ele>119.4</ele>
        <time>2018-12-03T17:15:08Z</time>
      </trkpt>
      <trkpt lat="60.009671746898" lon="15.78941921242">
        <ele>119.2</ele>
        <time>2018-12-03T17:15:13Z</time>
      </trkpt>
      <trkpt lat="60.009774592811" lon="15.789754153144">
        <ele>119.2</ele>
        <time>2018-12-03T17:15:19Z</time>
      </trkpt>
      <trkpt lat="60.010005849432" lon="15.790199232034">
        <ele>120</ele>
        <time>2018-12-03T17:15:25Z</time>
      </trkpt>
      <trkpt lat="60.010151945949" lon="15.790430488655">
        <ele>120.8</ele>
        <time>2018-12-03T17:15:28Z</time>
      </trkpt>
      <trkpt lat="60.010403570587" lon="15.790776744944">
        <ele>121.8</ele>
        <time>2018-12-03T17:15:33Z</time>
      </trkpt>
      <trkpt lat="60.010529634363" lon="15.790940443451">
        <ele>122.4</ele>
        <time>2018-12-03T17:15:39Z</time>
      </trkpt>
      <trkpt lat="60.010498453695" lon="15.791124845251">
        <ele>122.6</ele>
        <time>2018-12-03T17:15:45Z</time>
      </trkpt>
      <trkpt lat="60.010460651326" lon="15.791278904573">
        <ele>122.6</ele>
        <time>2018-12-03T17:15:51Z</time>
      </trkpt>
      <trkpt lat="60.010350932255" lon="15.791656509168">
        <ele>122.4</ele>
        <time>2018-12-03T17:15:57Z</time>
      </trkpt>
      <trkpt lat="60.010279434648" lon="15.791826913195">
        <ele>122.4</ele>
        <time>2018-12-03T17:15:59Z</time>
      </trkpt>
      <trkpt lat="60.010214223466" lon="15.792040316369">
        <ele>122.2</ele>
        <time>2018-12-03T17:16:01Z</time>
      </trkpt>
      <trkpt lat="60.009997718989" lon="15.792583966403">
        <ele>120.8</ele>
        <time>2018-12-03T17:16:06Z</time>
      </trkpt>
      <trkpt lat="60.009785908376" lon="15.793129963369">
        <ele>119.8</ele>
        <time>2018-12-03T17:16:11Z</time>
      </trkpt>
      <trkpt lat="60.009549371158" lon="15.793774615298">
        <ele>118.8</ele>
        <time>2018-12-03T17:16:17Z</time>
      </trkpt>
      <trkpt lat="60.009514753911" lon="15.793857512289">
        <ele>118.8</ele>
        <time>2018-12-03T17:16:18Z</time>
      </trkpt>
      <trkpt lat="60.009382487529" lon="15.794311140717">
        <ele>118</ele>
        <time>2018-12-03T17:16:24Z</time>
      </trkpt>
      <trkpt lat="60.00938659466" lon="15.794367550904">
        <ele>118</ele>
        <time>2018-12-03T17:16:25Z</time>
      </trkpt>
      <trkpt lat="60.009415679853" lon="15.794488166445">
        <ele>117.8</ele>
        <time>2018-12-03T17:16:27Z</time>
      </trkpt>
      <trkpt lat="60.009561357275" lon="15.794771474665">
        <ele>117.8</ele>
        <time>2018-12-03T17:16:33Z</time>
      </trkpt>
      <trkpt lat="60.009612486865" lon="15.794794021976">
        <ele>118.2</ele>
        <time>2018-12-03T17:16:38Z</time>
      </trkpt>
      <trkpt lat="60.009680296436" lon="15.794736270685">
        <ele>118.8</ele>
        <time>2018-12-03T17:18:17Z</time>
      </trkpt>
      <trkpt lat="60.009710638914" lon="15.794693690633">
        <ele>118.4</ele>
        <time>2018-12-03T17:18:19Z</time>
      </trkpt>
      <trkpt lat="60.009745256161" lon="15.7945589935">
        <ele>118.2</ele>
        <time>2018-12-03T17:18:22Z</time>
      </trkpt>
      <trkpt lat="60.009711728561" lon="15.794474084853">
        <ele>118.2</ele>
        <time>2018-12-03T17:18:25Z</time>
      </trkpt>
      <trkpt lat="60.00960284768" lon="15.794704168008">
        <ele>118.4</ele>
        <time>2018-12-03T17:18:31Z</time>
      </trkpt>
      <trkpt lat="60.00950226488" lon="15.794906507074">
        <ele>118.2</ele>
        <time>2018-12-03T17:18:37Z</time>
      </trkpt>
      <trkpt lat="60.009526656209" lon="15.79530246803">
        <ele>118.6</ele>
        <time>2018-12-03T17:18:43Z</time>
      </trkpt>
      <trkpt lat="60.009587592622" lon="15.795734554975">
        <ele>119.4</ele>
        <time>2018-12-03T17:18:49Z</time>
      </trkpt>
      <trkpt lat="60.009594214323" lon="15.795870090298">
        <ele>120</ele>
        <time>2018-12-03T17:18:51Z</time>
      </trkpt>
      <trkpt lat="60.009634279805" lon="15.796155242536">
        <ele>121.2</ele>
        <time>2018-12-03T17:18:55Z</time>
      </trkpt>
      <trkpt lat="60.009655402193" lon="15.796422541327">
        <ele>122.2</ele>
        <time>2018-12-03T17:18:59Z</time>
      </trkpt>
      <trkpt lat="60.009687923965" lon="15.796668382454">
        <ele>123.4</ele>
        <time>2018-12-03T17:19:03Z</time>
      </trkpt>
      <trkpt lat="60.009716506244" lon="15.797084208513">
        <ele>124.6</ele>
        <time>2018-12-03T17:19:07Z</time>
      </trkpt>
      <trkpt lat="60.009726815981" lon="15.797278249498">
        <ele>125.8</ele>
        <time>2018-12-03T17:19:09Z</time>
      </trkpt>
      <trkpt lat="60.009736622804" lon="15.797468183352">
        <ele>126.8</ele>
        <time>2018-12-03T17:19:11Z</time>
      </trkpt>
      <trkpt lat="60.009751877862" lon="15.797764483517">
        <ele>128</ele>
        <time>2018-12-03T17:19:14Z</time>
      </trkpt>
      <trkpt lat="60.009771156232" lon="15.798059191121">
        <ele>129.4</ele>
        <time>2018-12-03T17:19:17Z</time>
      </trkpt>
      <trkpt lat="60.009820693261" lon="15.798425899246">
        <ele>130.6</ele>
        <time>2018-12-03T17:19:21Z</time>
      </trkpt>
      <trkpt lat="60.009872241946" lon="15.798932417463">
        <ele>131.6</ele>
        <time>2018-12-03T17:19:27Z</time>
      </trkpt>
      <trkpt lat="60.009878863647" lon="15.799013554255">
        <ele>131.8</ele>
        <time>2018-12-03T17:19:28Z</time>
      </trkpt>
      <trkpt lat="60.009866458435" lon="15.799414879627">
        <ele>132.4</ele>
        <time>2018-12-03T17:19:34Z</time>
      </trkpt>
      <trkpt lat="60.009882719321" lon="15.799716711846">
        <ele>132.6</ele>
        <time>2018-12-03T17:19:40Z</time>
      </trkpt>
      <trkpt lat="60.009868973005" lon="15.799822575243">
        <ele>132.8</ele>
        <time>2018-12-03T17:19:43Z</time>
      </trkpt>
      <trkpt lat="60.009869140643" lon="15.799835567188">
        <ele>132.8</ele>
        <time>2018-12-03T17:19:45Z</time>
      </trkpt>
      <trkpt lat="60.009906188641" lon="15.799382525493">
        <ele>133.6</ele>
        <time>2018-12-03T17:22:57Z</time>
      </trkpt>
      <trkpt lat="60.009888419013" lon="15.799271632956">
        <ele>133.4</ele>
        <time>2018-12-03T17:23:01Z</time>
      </trkpt>
      <trkpt lat="60.009901159501" lon="15.799083375482">
        <ele>133.2</ele>
        <time>2018-12-03T17:23:07Z</time>
      </trkpt>
      <trkpt lat="60.009888838108" lon="15.798937195146">
        <ele>133.4</ele>
        <time>2018-12-03T17:23:13Z</time>
      </trkpt>
      <trkpt lat="60.009872074308" lon="15.798712392588">
        <ele>133</ele>
        <time>2018-12-03T17:23:19Z</time>
      </trkpt>
      <trkpt lat="60.009854891413" lon="15.798479794863">
        <ele>132.6</ele>
        <time>2018-12-03T17:23:25Z</time>
      </trkpt>
      <trkpt lat="60.009843492029" lon="15.798316180175">
        <ele>132.6</ele>
        <time>2018-12-03T17:23:31Z</time>
      </trkpt>
      <trkpt lat="60.009821028537" lon="15.798209394769">
        <ele>132.2</ele>
        <time>2018-12-03T17:23:37Z</time>
      </trkpt>
      <trkpt lat="60.009812646637" lon="15.798120965724">
        <ele>131.8</ele>
        <time>2018-12-03T17:23:41Z</time>
      </trkpt>
      <trkpt lat="60.009823543107" lon="15.798031279394">
        <ele>131.8</ele>
        <time>2018-12-03T17:23:44Z</time>
      </trkpt>
      <trkpt lat="60.009825387125" lon="15.798008061531">
        <ele>131.8</ele>
        <time>2018-12-03T17:23:45Z</time>
      </trkpt>
      <trkpt lat="60.009795966656" lon="15.797845704128">
        <ele>131.8</ele>
        <time>2018-12-03T17:23:51Z</time>
      </trkpt>
      <trkpt lat="60.009785154005" lon="15.797774122702">
        <ele>131.8</ele>
        <time>2018-12-03T17:23:54Z</time>
      </trkpt>
      <trkpt lat="60.009796804846" lon="15.797585194676">
        <ele>131.4</ele>
        <time>2018-12-03T17:24:00Z</time>
      </trkpt>
      <trkpt lat="60.00978222034" lon="15.797482181125">
        <ele>131</ele>
        <time>2018-12-03T17:24:05Z</time>
      </trkpt>
      <trkpt lat="60.009784986367" lon="15.797420909436">
        <ele>130.8</ele>
        <time>2018-12-03T17:24:07Z</time>
      </trkpt>
      <trkpt lat="60.009798062131" lon="15.797324433767">
        <ele>129.6</ele>
        <time>2018-12-03T17:24:12Z</time>
      </trkpt>
      <trkpt lat="60.00976713292" lon="15.797352932227">
        <ele>129.6</ele>
        <time>2018-12-03T17:24:59Z</time>
      </trkpt>
      <trkpt lat="60.009756487907" lon="15.797133494085">
        <ele>129</ele>
        <time>2018-12-03T17:25:05Z</time>
      </trkpt>
      <trkpt lat="60.009737963908" lon="15.796905674043">
        <ele>128.8</ele>
        <time>2018-12-03T17:25:11Z</time>
      </trkpt>
      <trkpt lat="60.009733270044" lon="15.796865105647">
        <ele>128.6</ele>
        <time>2018-12-03T17:25:12Z</time>
      </trkpt>
      <trkpt lat="60.009717428253" lon="15.796685146254">
        <ele>127.4</ele>
        <time>2018-12-03T17:25:17Z</time>
      </trkpt>
      <trkpt lat="60.009725391058" lon="15.796608200412">
        <ele>126.8</ele>
        <time>2018-12-03T17:25:19Z</time>
      </trkpt>
      <trkpt lat="60.009744837066" lon="15.796545671438">
        <ele>126.4</ele>
        <time>2018-12-03T17:25:21Z</time>
      </trkpt>
      <trkpt lat="60.009766546187" lon="15.79652538724">
        <ele>126.2</ele>
        <time>2018-12-03T17:25:22Z</time>
      </trkpt>
      <trkpt lat="60.009803761823" lon="15.796467468311">
        <ele>126.2</ele>
        <time>2018-12-03T17:25:25Z</time>
      </trkpt>
      <trkpt lat="60.009842821477" lon="15.796331094798">
        <ele>126.2</ele>
        <time>2018-12-03T17:25:29Z</time>
      </trkpt>
      <trkpt lat="60.009868470091" lon="15.796292035144">
        <ele>126.2</ele>
        <time>2018-12-03T17:25:33Z</time>
      </trkpt>
      <trkpt lat="60.00988531771" lon="15.796273343507">
        <ele>126.2</ele>
        <time>2018-12-03T17:25:36Z</time>
      </trkpt>
      <trkpt lat="60.009932843083" lon="15.796311062057">
        <ele>126.8</ele>
        <time>2018-12-03T17:26:00Z</time>
      </trkpt>
      <trkpt lat="60.009914989636" lon="15.796296393732">
        <ele>126.4</ele>
        <time>2018-12-03T17:26:06Z</time>
      </trkpt>
      <trkpt lat="60.009963353199" lon="15.796286670728">
        <ele>126.2</ele>
        <time>2018-12-03T17:26:29Z</time>
      </trkpt>
      <trkpt lat="60.010104252938" lon="15.796278791742">
        <ele>126.8</ele>
        <time>2018-12-03T17:26:35Z</time>
      </trkpt>
      <trkpt lat="60.010239704442" lon="15.796281222493">
        <ele>127.4</ele>
        <time>2018-12-03T17:26:39Z</time>
      </trkpt>
      <trkpt lat="60.010404911691" lon="15.796286419271">
        <ele>128.4</ele>
        <time>2018-12-03T17:26:44Z</time>
      </trkpt>
      <trkpt lat="60.010497531686" lon="15.796531673665">
        <ele>129</ele>
        <time>2018-12-03T17:26:50Z</time>
      </trkpt>
      <trkpt lat="60.010567436732" lon="15.796706855375">
        <ele>129.6</ele>
        <time>2018-12-03T17:26:53Z</time>
      </trkpt>
      <trkpt lat="60.010595348459" lon="15.796923108395">
        <ele>130.8</ele>
        <time>2018-12-03T17:26:57Z</time>
      </trkpt>
      <trkpt lat="60.010597863029" lon="15.797179762173">
        <ele>131.8</ele>
        <time>2018-12-03T17:27:01Z</time>
      </trkpt>
      <trkpt lat="60.010578668478" lon="15.797431973544">
        <ele>133</ele>
        <time>2018-12-03T17:27:05Z</time>
      </trkpt>
      <trkpt lat="60.010582859428" lon="15.797742606758">
        <ele>134.2</ele>
        <time>2018-12-03T17:27:10Z</time>
      </trkpt>
      <trkpt lat="60.010609765327" lon="15.798038487828">
        <ele>135.2</ele>
        <time>2018-12-03T17:27:15Z</time>
      </trkpt>
      <trkpt lat="60.010650920456" lon="15.798158851912">
        <ele>135.8</ele>
        <time>2018-12-03T17:27:19Z</time>
      </trkpt>
      <trkpt lat="60.010532987123" lon="15.797750066649">
        <ele>136.2</ele>
        <time>2018-12-03T17:30:47Z</time>
      </trkpt>
      <trkpt lat="60.010550253837" lon="15.797602126114">
        <ele>134.4</ele>
        <time>2018-12-03T17:30:53Z</time>
      </trkpt>
      <trkpt lat="60.010560563574" lon="15.797587876884">
        <ele>134.4</ele>
        <time>2018-12-03T17:30:54Z</time>
      </trkpt>
      <trkpt lat="60.010591828061" lon="15.797512691241">
        <ele>134.4</ele>
        <time>2018-12-03T17:30:59Z</time>
      </trkpt>
      <trkpt lat="60.010512870563" lon="15.797428788422">
        <ele>134.2</ele>
        <time>2018-12-03T17:32:37Z</time>
      </trkpt>
      <trkpt lat="60.010517480608" lon="15.797379335212">
        <ele>134</ele>
        <time>2018-12-03T17:32:38Z</time>
      </trkpt>
      <trkpt lat="60.010517899703" lon="15.797279925878">
        <ele>133</ele>
        <time>2018-12-03T17:32:41Z</time>
      </trkpt>
      <trkpt lat="60.010517480608" lon="15.797136511569">
        <ele>132.6</ele>
        <time>2018-12-03T17:32:45Z</time>
      </trkpt>
      <trkpt lat="60.010507757604" lon="15.796886311854">
        <ele>132</ele>
        <time>2018-12-03T17:32:51Z</time>
      </trkpt>
      <trkpt lat="60.010478588592" lon="15.79661004443">
        <ele>131.2</ele>
        <time>2018-12-03T17:32:56Z</time>
      </trkpt>
      <trkpt lat="60.010476493117" lon="15.796563273428">
        <ele>131</ele>
        <time>2018-12-03T17:32:57Z</time>
      </trkpt>
      <trkpt lat="60.010473224176" lon="15.796421367861">
        <ele>129.8</ele>
        <time>2018-12-03T17:33:00Z</time>
      </trkpt>
      <trkpt lat="60.0104812708" lon="15.796331178617">
        <ele>129.4</ele>
        <time>2018-12-03T17:33:03Z</time>
      </trkpt>
      <trkpt lat="60.010492754003" lon="15.796165636092">
        <ele>129.2</ele>
        <time>2018-12-03T17:33:09Z</time>
      </trkpt>
      <trkpt lat="60.01048797632" lon="15.796125989705">
        <ele>129.4</ele>
        <time>2018-12-03T17:33:11Z</time>
      </trkpt>
      <trkpt lat="60.010490658528" lon="15.796081230359">
        <ele>129.4</ele>
        <time>2018-12-03T17:33:17Z</time>
      </trkpt>
      <trkpt lat="60.010488227777" lon="15.796069076604">
        <ele>129.4</ele>
        <time>2018-12-03T17:33:18Z</time>
      </trkpt>
      <trkpt lat="60.010613285725" lon="15.796478280962">
        <ele>129.2</ele>
        <time>2018-12-03T17:33:51Z</time>
      </trkpt>
      <trkpt lat="60.010654440854" lon="15.796431258503">
        <ele>129.6</ele>
        <time>2018-12-03T17:33:56Z</time>
      </trkpt>
      <trkpt lat="60.011251651229" lon="15.796024736353">
        <ele>131.6</ele>
        <time>2018-12-03T17:36:10Z</time>
      </trkpt>
      <trkpt lat="60.011289872693" lon="15.796089779897">
        <ele>132.2</ele>
        <time>2018-12-03T17:36:13Z</time>
      </trkpt>
      <trkpt lat="60.011306804131" lon="15.796152895604">
        <ele>132.6</ele>
        <time>2018-12-03T17:36:15Z</time>
      </trkpt>
      <trkpt lat="60.011365142155" lon="15.796365209131">
        <ele>133.2</ele>
        <time>2018-12-03T17:36:21Z</time>
      </trkpt>
      <trkpt lat="60.011424821283" lon="15.796465289017">
        <ele>133.8</ele>
        <time>2018-12-03T17:36:25Z</time>
      </trkpt>
      <trkpt lat="60.011541748788" lon="15.796518514082">
        <ele>134.6</ele>
        <time>2018-12-03T17:36:31Z</time>
      </trkpt>
      <trkpt lat="60.011611653834" lon="15.796543324506">
        <ele>134.8</ele>
        <time>2018-12-03T17:36:37Z</time>
      </trkpt>
      <trkpt lat="60.01166395689" lon="15.796564279256">
        <ele>134.4</ele>
        <time>2018-12-03T17:36:43Z</time>
      </trkpt>
      <trkpt lat="60.011644510882" lon="15.796288682384">
        <ele>134.2</ele>
        <time>2018-12-03T17:37:56Z</time>
      </trkpt>
      <trkpt lat="60.011620957743" lon="15.795987101622">
        <ele>133.8</ele>
        <time>2018-12-03T17:38:02Z</time>
      </trkpt>
      <trkpt lat="60.011623639951" lon="15.795795742845">
        <ele>133.2</ele>
        <time>2018-12-03T17:38:08Z</time>
      </trkpt>
      <trkpt lat="60.011690192237" lon="15.79554638132">
        <ele>133.6</ele>
        <time>2018-12-03T17:38:14Z</time>
      </trkpt>
      <trkpt lat="60.011767305717" lon="15.795358542941">
        <ele>134</ele>
        <time>2018-12-03T17:38:20Z</time>
      </trkpt>
      <trkpt lat="60.011963945091" lon="15.795512769901">
        <ele>134.6</ele>
        <time>2018-12-03T17:38:26Z</time>
      </trkpt>
      <trkpt lat="60.012041058571" lon="15.795604886982">
        <ele>135</ele>
        <time>2018-12-03T17:38:28Z</time>
      </trkpt>
      <trkpt lat="60.012363510264" lon="15.795958854619">
        <ele>135.8</ele>
        <time>2018-12-03T17:38:34Z</time>
      </trkpt>
      <trkpt lat="60.012422602659" lon="15.795999925929">
        <ele>135.8</ele>
        <time>2018-12-03T17:38:35Z</time>
      </trkpt>
      <trkpt lat="60.012479767217" lon="15.796034459357">
        <ele>136</ele>
        <time>2018-12-03T17:38:36Z</time>
      </trkpt>
      <trkpt lat="60.012838512537" lon="15.796142250591">
        <ele>136.4</ele>
        <time>2018-12-03T17:38:42Z</time>
      </trkpt>
      <trkpt lat="60.013136321444" lon="15.796211820361">
        <ele>136.8</ele>
        <time>2018-12-03T17:38:48Z</time>
      </trkpt>
      <trkpt lat="60.013288033834" lon="15.796215173121">
        <ele>137</ele>
        <time>2018-12-03T17:38:51Z</time>
      </trkpt>
      <trkpt lat="60.01355575172" lon="15.796257585535">
        <ele>137.8</ele>
        <time>2018-12-03T17:38:57Z</time>
      </trkpt>
      <trkpt lat="60.01373680076" lon="15.796332687359">
        <ele>138</ele>
        <time>2018-12-03T17:39:01Z</time>
      </trkpt>
      <trkpt lat="60.013784661409" lon="15.796349618797">
        <ele>138</ele>
        <time>2018-12-03T17:39:02Z</time>
      </trkpt>
      <trkpt lat="60.014050619096" lon="15.796323299631">
        <ele>138.6</ele>
        <time>2018-12-03T17:39:08Z</time>
      </trkpt>
      <trkpt lat="60.014147010946" lon="15.796309469496">
        <ele>139.2</ele>
        <time>2018-12-03T17:39:10Z</time>
      </trkpt>
      <trkpt lat="60.014395366643" lon="15.796309804772">
        <ele>140.2</ele>
        <time>2018-12-03T17:39:15Z</time>
      </trkpt>
      <trkpt lat="60.014441383274" lon="15.796345092571">
        <ele>140.4</ele>
        <time>2018-12-03T17:39:16Z</time>
      </trkpt>
      <trkpt lat="60.014554287467" lon="15.796436203824">
        <ele>140.6</ele>
        <time>2018-12-03T17:39:18Z</time>
      </trkpt>
      <trkpt lat="60.014646488367" lon="15.796581881246">
        <ele>140.8</ele>
        <time>2018-12-03T17:39:20Z</time>
      </trkpt>
      <trkpt lat="60.014726116417" lon="15.796812215858">
        <ele>141.4</ele>
        <time>2018-12-03T17:39:23Z</time>
      </trkpt>
      <trkpt lat="60.0147560398" lon="15.797008603775">
        <ele>141.6</ele>
        <time>2018-12-03T17:39:25Z</time>
      </trkpt>
      <trkpt lat="60.014766349537" lon="15.79718336639">
        <ele>141.6</ele>
        <time>2018-12-03T17:39:27Z</time>
      </trkpt>
      <trkpt lat="60.014738186353" lon="15.797394254994">
        <ele>141.8</ele>
        <time>2018-12-03T17:39:29Z</time>
      </trkpt>
      <trkpt lat="60.014655289362" lon="15.797631881859">
        <ele>142</ele>
        <time>2018-12-03T17:39:31Z</time>
      </trkpt>
      <trkpt lat="60.014546995214" lon="15.797846709956">
        <ele>141.8</ele>
        <time>2018-12-03T17:39:34Z</time>
      </trkpt>
      <trkpt lat="60.01429671168" lon="15.797969337153">
        <ele>141.8</ele>
        <time>2018-12-03T17:39:40Z</time>
      </trkpt>
      <trkpt lat="60.014244827719" lon="15.797939665227">
        <ele>141.8</ele>
        <time>2018-12-03T17:39:41Z</time>
      </trkpt>
      <trkpt lat="60.013971326322" lon="15.797902114315">
        <ele>141.8</ele>
        <time>2018-12-03T17:39:47Z</time>
      </trkpt>
      <trkpt lat="60.013938636912" lon="15.797978976338">
        <ele>141.2</ele>
        <time>2018-12-03T17:39:53Z</time>
      </trkpt>
      <trkpt lat="60.014048942716" lon="15.797865988326">
        <ele>141</ele>
        <time>2018-12-03T17:39:59Z</time>
      </trkpt>
      <trkpt lat="60.01430006444" lon="15.797811673614">
        <ele>141.2</ele>
        <time>2018-12-03T17:40:05Z</time>
      </trkpt>
      <trkpt lat="60.01430257901" lon="15.797809829596">
        <ele>141.2</ele>
        <time>2018-12-03T17:40:06Z</time>
      </trkpt>
      <trkpt lat="60.014389834589" lon="15.797789964493">
        <ele>141.4</ele>
        <time>2018-12-03T17:40:31Z</time>
      </trkpt>
      <trkpt lat="60.014463343852" lon="15.797794993633">
        <ele>141.2</ele>
        <time>2018-12-03T17:40:37Z</time>
      </trkpt>
      <trkpt lat="60.014479185643" lon="15.797786444095">
        <ele>141.2</ele>
        <time>2018-12-03T17:40:38Z</time>
      </trkpt>
      <trkpt lat="60.014587312153" lon="15.797709498253">
        <ele>140.8</ele>
        <time>2018-12-03T17:40:44Z</time>
      </trkpt>
      <trkpt lat="60.014710861359" lon="15.797437254141">
        <ele>141</ele>
        <time>2018-12-03T17:40:50Z</time>
      </trkpt>
      <trkpt lat="60.014756207438" lon="15.797173224291">
        <ele>141</ele>
        <time>2018-12-03T17:40:55Z</time>
      </trkpt>
      <trkpt lat="60.014763751148" lon="15.796906512233">
        <ele>141</ele>
        <time>2018-12-03T17:41:01Z</time>
      </trkpt>
      <trkpt lat="60.014764170243" lon="15.79689251446">
        <ele>140.8</ele>
        <time>2018-12-03T17:41:02Z</time>
      </trkpt>
      <trkpt lat="60.014581361004" lon="15.796472665089">
        <ele>140.8</ele>
        <time>2018-12-03T17:41:34Z</time>
      </trkpt>
      <trkpt lat="60.014551102345" lon="15.796439137489">
        <ele>141</ele>
        <time>2018-12-03T17:41:36Z</time>
      </trkpt>
      <trkpt lat="60.014464852594" lon="15.796357916878">
        <ele>140.4</ele>
        <time>2018-12-03T17:41:42Z</time>
      </trkpt>
      <trkpt lat="60.014391594788" lon="15.796341488354">
        <ele>139.8</ele>
        <time>2018-12-03T17:41:48Z</time>
      </trkpt>
      <trkpt lat="60.014371645866" lon="15.796327155305">
        <ele>139.6</ele>
        <time>2018-12-03T17:41:52Z</time>
      </trkpt>
      <trkpt lat="60.014331412746" lon="15.796311984066">
        <ele>140</ele>
        <time>2018-12-03T17:42:05Z</time>
      </trkpt>
      <trkpt lat="60.014296208766" lon="15.796317013206">
        <ele>140.2</ele>
        <time>2018-12-03T17:42:07Z</time>
      </trkpt>
      <trkpt lat="60.014183891306" lon="15.796355905222">
        <ele>140.2</ele>
        <time>2018-12-03T17:42:13Z</time>
      </trkpt>
      <trkpt lat="60.014096132813" lon="15.796402760043">
        <ele>140</ele>
        <time>2018-12-03T17:42:18Z</time>
      </trkpt>
      <trkpt lat="60.014037543332" lon="15.796371327918">
        <ele>139.4</ele>
        <time>2018-12-03T17:42:24Z</time>
      </trkpt>
      <trkpt lat="60.014039052074" lon="15.796368478072">
        <ele>139.2</ele>
        <time>2018-12-03T17:42:25Z</time>
      </trkpt>
      <trkpt lat="60.014061850842" lon="15.79639630598">
        <ele>139</ele>
        <time>2018-12-03T17:42:28Z</time>
      </trkpt>
      <trkpt lat="60.014064030136" lon="15.796398401455">
        <ele>138.8</ele>
        <time>2018-12-03T17:42:30Z</time>
      </trkpt>
      <trkpt lat="60.014025473396" lon="15.796394294324">
        <ele>139.2</ele>
        <time>2018-12-03T17:42:33Z</time>
      </trkpt>
      <trkpt lat="60.013938972188" lon="15.796414159427">
        <ele>140</ele>
        <time>2018-12-03T17:42:39Z</time>
      </trkpt>
      <trkpt lat="60.013883148734" lon="15.796421870775">
        <ele>139.6</ele>
        <time>2018-12-03T17:42:44Z</time>
      </trkpt>
      <trkpt lat="60.01385498555" lon="15.796395132514">
        <ele>138.8</ele>
        <time>2018-12-03T17:42:58Z</time>
      </trkpt>
      <trkpt lat="60.013768987256" lon="15.796384990415">
        <ele>138.8</ele>
        <time>2018-12-03T17:43:04Z</time>
      </trkpt>
      <trkpt lat="60.013686760817" lon="15.796390103374">
        <ele>138.4</ele>
        <time>2018-12-03T17:43:10Z</time>
      </trkpt>
      <trkpt lat="60.013609060604" lon="15.796311145876">
        <ele>138.4</ele>
        <time>2018-12-03T17:43:16Z</time>
      </trkpt>
      <trkpt lat="60.013516608247" lon="15.796222381555">
        <ele>138.6</ele>
        <time>2018-12-03T17:43:22Z</time>
      </trkpt>
      <trkpt lat="60.013498670981" lon="15.796076033581">
        <ele>138.2</ele>
        <time>2018-12-03T17:43:26Z</time>
      </trkpt>
      <trkpt lat="60.013493641841" lon="15.795883752795">
        <ele>137.8</ele>
        <time>2018-12-03T17:43:32Z</time>
      </trkpt>
      <trkpt lat="60.013498922438" lon="15.795771686792">
        <ele>137.4</ele>
        <time>2018-12-03T17:43:38Z</time>
      </trkpt>
      <trkpt lat="60.013490708176" lon="15.795808902428">
        <ele>137.2</ele>
        <time>2018-12-03T17:43:40Z</time>
      </trkpt>
      <trkpt lat="60.013504119216" lon="15.795709660732">
        <ele>137.4</ele>
        <time>2018-12-03T17:43:45Z</time>
      </trkpt>
      <trkpt lat="60.013493138927" lon="15.795526013303">
        <ele>137.6</ele>
        <time>2018-12-03T17:43:51Z</time>
      </trkpt>
      <trkpt lat="60.013496072592" lon="15.795341360046">
        <ele>137.6</ele>
        <time>2018-12-03T17:43:57Z</time>
      </trkpt>
      <trkpt lat="60.013479727887" lon="15.795131058175">
        <ele>137.6</ele>
        <time>2018-12-03T17:44:03Z</time>
      </trkpt>
      <trkpt lat="60.013472687091" lon="15.79509711148">
        <ele>137.6</ele>
        <time>2018-12-03T17:44:04Z</time>
      </trkpt>
      <trkpt lat="60.013461455345" lon="15.794930479308">
        <ele>137.4</ele>
        <time>2018-12-03T17:44:10Z</time>
      </trkpt>
      <trkpt lat="60.013466400666" lon="15.794906423255">
        <ele>137.4</ele>
        <time>2018-12-03T17:44:11Z</time>
      </trkpt>
      <trkpt lat="60.013536557169" lon="15.794775917072">
        <ele>137.4</ele>
        <time>2018-12-03T17:44:17Z</time>
      </trkpt>
      <trkpt lat="60.013576538832" lon="15.794676843014">
        <ele>137.8</ele>
        <time>2018-12-03T17:44:22Z</time>
      </trkpt>
      <trkpt lat="60.01361274864" lon="15.794713891012">
        <ele>137.6</ele>
        <time>2018-12-03T17:44:25Z</time>
      </trkpt>
      <trkpt lat="60.013643342575" lon="15.794728140242">
        <ele>137.4</ele>
        <time>2018-12-03T17:44:27Z</time>
      </trkpt>
      <trkpt lat="60.013710565413" lon="15.794729900441">
        <ele>137</ele>
        <time>2018-12-03T17:44:31Z</time>
      </trkpt>
      <trkpt lat="60.013809220376" lon="15.79468556019">
        <ele>136.8</ele>
        <time>2018-12-03T17:44:37Z</time>
      </trkpt>
      <trkpt lat="60.013913994126" lon="15.794670975684">
        <ele>136.6</ele>
        <time>2018-12-03T17:44:43Z</time>
      </trkpt>
      <trkpt lat="60.013976690738" lon="15.79466209087">
        <ele>137.2</ele>
        <time>2018-12-03T17:44:49Z</time>
      </trkpt>
      <trkpt lat="60.014001836438" lon="15.794670556589">
        <ele>137.2</ele>
        <time>2018-12-03T17:44:51Z</time>
      </trkpt>
      <trkpt lat="60.014033939115" lon="15.794691259882">
        <ele>137.2</ele>
        <time>2018-12-03T17:44:53Z</time>
      </trkpt>
      <trkpt lat="60.014121613789" lon="15.794708778053">
        <ele>137</ele>
        <time>2018-12-03T17:44:59Z</time>
      </trkpt>
      <trkpt lat="60.014159080882" lon="15.794752447752">
        <ele>136.8</ele>
        <time>2018-12-03T17:45:03Z</time>
      </trkpt>
      <trkpt lat="60.014047182517" lon="15.794684805819">
        <ele>137</ele>
        <time>2018-12-03T17:45:51Z</time>
      </trkpt>
      <trkpt lat="60.013835371904" lon="15.79469394209">
        <ele>137</ele>
        <time>2018-12-03T17:45:57Z</time>
      </trkpt>
      <trkpt lat="60.013715594553" lon="15.794683632353">
        <ele>137.2</ele>
        <time>2018-12-03T17:46:00Z</time>
      </trkpt>
      <trkpt lat="60.01355658991" lon="15.794752950666">
        <ele>137.4</ele>
        <time>2018-12-03T17:46:06Z</time>
      </trkpt>
      <trkpt lat="60.013502275198" lon="15.795096524747">
        <ele>137.6</ele>
        <time>2018-12-03T17:46:12Z</time>
      </trkpt>
      <trkpt lat="60.013513171668" lon="15.795509584779">
        <ele>137.8</ele>
        <time>2018-12-03T17:46:18Z</time>
      </trkpt>
      <trkpt lat="60.013502694293" lon="15.795925997571">
        <ele>138</ele>
        <time>2018-12-03T17:46:24Z</time>
      </trkpt>
      <trkpt lat="60.013396914715" lon="15.796206707402">
        <ele>137.8</ele>
        <time>2018-12-03T17:46:30Z</time>
      </trkpt>
      <trkpt lat="60.013269509835" lon="15.796357665421">
        <ele>137.6</ele>
        <time>2018-12-03T17:46:36Z</time>
      </trkpt>
      <trkpt lat="60.01326322341" lon="15.796695791267">
        <ele>137.6</ele>
        <time>2018-12-03T17:46:42Z</time>
      </trkpt>
      <trkpt lat="60.013287363282" lon="15.797104744168">
        <ele>137.4</ele>
        <time>2018-12-03T17:46:48Z</time>
      </trkpt>
      <trkpt lat="60.01328250178" lon="15.797333570038">
        <ele>137.4</ele>
        <time>2018-12-03T17:46:52Z</time>
      </trkpt>
      <trkpt lat="60.013332290266" lon="15.797329127631">
        <ele>137.6</ele>
        <time>2018-12-03T17:46:56Z</time>
      </trkpt>
      <trkpt lat="60.013334050465" lon="15.797116814104">
        <ele>137</ele>
        <time>2018-12-03T17:47:02Z</time>
      </trkpt>
      <trkpt lat="60.013332038809" lon="15.797075742794">
        <ele>137</ele>
        <time>2018-12-03T17:47:05Z</time>
      </trkpt>
      <trkpt lat="60.013272946414" lon="15.796690678308">
        <ele>137</ele>
        <time>2018-12-03T17:47:55Z</time>
      </trkpt>
      <trkpt lat="60.013240173185" lon="15.796337297404">
        <ele>137.2</ele>
        <time>2018-12-03T17:48:01Z</time>
      </trkpt>
      <trkpt lat="60.013219302254" lon="15.79627393024">
        <ele>137.4</ele>
        <time>2018-12-03T17:48:02Z</time>
      </trkpt>
      <trkpt lat="60.013032888798" lon="15.7962018459">
        <ele>137.2</ele>
        <time>2018-12-03T17:48:08Z</time>
      </trkpt>
      <trkpt lat="60.012797525046" lon="15.796235876414">
        <ele>137</ele>
        <time>2018-12-03T17:48:14Z</time>
      </trkpt>
      <trkpt lat="60.012753017157" lon="15.796231014912">
        <ele>137</ele>
        <time>2018-12-03T17:48:15Z</time>
      </trkpt>
      <trkpt lat="60.012666683587" lon="15.796186087928">
        <ele>137.2</ele>
        <time>2018-12-03T17:48:17Z</time>
      </trkpt>
      <trkpt lat="60.01238563848" lon="15.795908982314">
        <ele>136.8</ele>
        <time>2018-12-03T17:48:23Z</time>
      </trkpt>
      <trkpt lat="60.012343477523" lon="15.795858690914">
        <ele>136.8</ele>
        <time>2018-12-03T17:48:24Z</time>
      </trkpt>
      <trkpt lat="60.01211406492" lon="15.795508578951">
        <ele>136.8</ele>
        <time>2018-12-03T17:48:30Z</time>
      </trkpt>
      <trkpt lat="60.011991353904" lon="15.795320321477">
        <ele>136</ele>
        <time>2018-12-03T17:48:35Z</time>
      </trkpt>
      <trkpt lat="60.011961681978" lon="15.795272963742">
        <ele>135.6</ele>
        <time>2018-12-03T17:48:38Z</time>
      </trkpt>
      <trkpt lat="60.012298634358" lon="15.793617873768">
        <ele>133</ele>
        <time>2018-12-03T17:51:26Z</time>
      </trkpt>
      <trkpt lat="60.012293186123" lon="15.793443446429">
        <ele>132.8</ele>
        <time>2018-12-03T17:51:32Z</time>
      </trkpt>
      <trkpt lat="60.012309111733" lon="15.793255105136">
        <ele>132.2</ele>
        <time>2018-12-03T17:51:38Z</time>
      </trkpt>
      <trkpt lat="60.012304920783" lon="15.793199281682">
        <ele>131.8</ele>
        <time>2018-12-03T17:51:40Z</time>
      </trkpt>
      <trkpt lat="60.012289581906" lon="15.792973305658">
        <ele>131.4</ele>
        <time>2018-12-03T17:51:46Z</time>
      </trkpt>
      <trkpt lat="60.012256641039" lon="15.792918990946">
        <ele>131.4</ele>
        <time>2018-12-03T17:51:48Z</time>
      </trkpt>
      <trkpt lat="60.012117920594" lon="15.792708856713">
        <ele>131</ele>
        <time>2018-12-03T17:51:57Z</time>
      </trkpt>
      <trkpt lat="60.012112137083" lon="15.792625456808">
        <ele>131.2</ele>
        <time>2018-12-03T17:51:59Z</time>
      </trkpt>
      <trkpt lat="60.012142479561" lon="15.792486317268">
        <ele>130.8</ele>
        <time>2018-12-03T17:52:04Z</time>
      </trkpt>
      <trkpt lat="60.012165781243" lon="15.792457734989">
        <ele>130.6</ele>
        <time>2018-12-03T17:52:06Z</time>
      </trkpt>
      <trkpt lat="60.012285642413" lon="15.792440468275">
        <ele>130.4</ele>
        <time>2018-12-03T17:52:11Z</time>
      </trkpt>
      <trkpt lat="60.01234121441" lon="15.792568040793">
        <ele>130.6</ele>
        <time>2018-12-03T17:52:17Z</time>
      </trkpt>
      <trkpt lat="60.012389075059" lon="15.792560664721">
        <ele>130.8</ele>
        <time>2018-12-03T17:52:41Z</time>
      </trkpt>
      <trkpt lat="60.012409191619" lon="15.792353464153">
        <ele>130.8</ele>
        <time>2018-12-03T17:52:47Z</time>
      </trkpt>
      <trkpt lat="60.012576410524" lon="15.792319852734">
        <ele>130.6</ele>
        <time>2018-12-03T17:52:53Z</time>
      </trkpt>
      <trkpt lat="60.012697193703" lon="15.792352625963">
        <ele>131.6</ele>
        <time>2018-12-03T17:52:59Z</time>
      </trkpt>
      <trkpt lat="60.012782353807" lon="15.792369473582">
        <ele>131.8</ele>
        <time>2018-12-03T17:53:02Z</time>
      </trkpt>
      <trkpt lat="60.013023249613" lon="15.792423536837">
        <ele>132.4</ele>
        <time>2018-12-03T17:53:08Z</time>
      </trkpt>
      <trkpt lat="60.01321712296" lon="15.792419429706">
        <ele>133</ele>
        <time>2018-12-03T17:53:12Z</time>
      </trkpt>
      <trkpt lat="60.013482996828" lon="15.792436361144">
        <ele>133.8</ele>
        <time>2018-12-03T17:53:18Z</time>
      </trkpt>
      <trkpt lat="60.013519374274" lon="15.792436780239">
        <ele>134</ele>
        <time>2018-12-03T17:53:19Z</time>
      </trkpt>
      <trkpt lat="60.013618699789" lon="15.79243585823">
        <ele>134.6</ele>
        <time>2018-12-03T17:53:22Z</time>
      </trkpt>
      <trkpt lat="60.013680390573" lon="15.792426135226">
        <ele>135</ele>
        <time>2018-12-03T17:53:25Z</time>
      </trkpt>
      <trkpt lat="60.013796563707" lon="15.792455807152">
        <ele>135.4</ele>
        <time>2018-12-03T17:53:31Z</time>
      </trkpt>
      <trkpt lat="60.013908042977" lon="15.792718160622">
        <ele>135.6</ele>
        <time>2018-12-03T17:53:37Z</time>
      </trkpt>
      <trkpt lat="60.014118009572" lon="15.792883535509">
        <ele>135.6</ele>
        <time>2018-12-03T17:53:43Z</time>
      </trkpt>
      <trkpt lat="60.014214066146" lon="15.792998535177">
        <ele>135.6</ele>
        <time>2018-12-03T17:53:49Z</time>
      </trkpt>
      <trkpt lat="60.014225214073" lon="15.793061483246">
        <ele>135.2</ele>
        <time>2018-12-03T17:53:55Z</time>
      </trkpt>
      <trkpt lat="60.014223872969" lon="15.793075061924">
        <ele>135.2</ele>
        <time>2018-12-03T17:53:56Z</time>
      </trkpt>
      <trkpt lat="60.014204426961" lon="15.793151169576">
        <ele>136.2</ele>
        <time>2018-12-03T17:54:00Z</time>
      </trkpt>
      <trkpt lat="60.014204678418" lon="15.793175644724">
        <ele>136.6</ele>
        <time>2018-12-03T17:54:02Z</time>
      </trkpt>
      <trkpt lat="60.014195877423" lon="15.793240604449">
        <ele>136.8</ele>
        <time>2018-12-03T17:54:05Z</time>
      </trkpt>
      <trkpt lat="60.01418774698" lon="15.793300954129">
        <ele>136.8</ele>
        <time>2018-12-03T17:54:07Z</time>
      </trkpt>
      <trkpt lat="60.014148519688" lon="15.793460210229">
        <ele>137.2</ele>
        <time>2018-12-03T17:54:13Z</time>
      </trkpt>
      <trkpt lat="60.014146172756" lon="15.793493905467">
        <ele>137.2</ele>
        <time>2018-12-03T17:54:14Z</time>
      </trkpt>
      <trkpt lat="60.014113231889" lon="15.79365626287">
        <ele>137.6</ele>
        <time>2018-12-03T17:54:20Z</time>
      </trkpt>
      <trkpt lat="60.014080793936" lon="15.793802275568">
        <ele>137</ele>
        <time>2018-12-03T17:54:26Z</time>
      </trkpt>
      <trkpt lat="60.014066377068" lon="15.793836641358">
        <ele>137</ele>
        <time>2018-12-03T17:54:28Z</time>
      </trkpt>
      <trkpt lat="60.013997142574" lon="15.793836641358">
        <ele>137</ele>
        <time>2018-12-03T17:54:33Z</time>
      </trkpt>
      <trkpt lat="60.013943414595" lon="15.79384150286">
        <ele>137</ele>
        <time>2018-12-03T17:54:37Z</time>
      </trkpt>
      <trkpt lat="60.013920783465" lon="15.793837563367">
        <ele>137</ele>
        <time>2018-12-03T17:54:40Z</time>
      </trkpt>
      <trkpt lat="60.013866384934" lon="15.793923980756">
        <ele>136.4</ele>
        <time>2018-12-03T17:54:50Z</time>
      </trkpt>
      <trkpt lat="60.013888094055" lon="15.79391442539">
        <ele>136.6</ele>
        <time>2018-12-03T17:54:52Z</time>
      </trkpt>
      <trkpt lat="60.013948443735" lon="15.793881819799">
        <ele>137</ele>
        <time>2018-12-03T17:54:58Z</time>
      </trkpt>
      <trkpt lat="60.014021952998" lon="15.793723653346">
        <ele>137</ele>
        <time>2018-12-03T17:55:03Z</time>
      </trkpt>
      <trkpt lat="60.014028407061" lon="15.793665566779">
        <ele>137</ele>
        <time>2018-12-03T17:55:05Z</time>
      </trkpt>
      <trkpt lat="60.014040812273" lon="15.793615443017">
        <ele>137</ele>
        <time>2018-12-03T17:55:07Z</time>
      </trkpt>
      <trkpt lat="60.01408129685" lon="15.79347102288">
        <ele>136.8</ele>
        <time>2018-12-03T17:55:13Z</time>
      </trkpt>
      <trkpt lat="60.014124295997" lon="15.793344037095">
        <ele>136.8</ele>
        <time>2018-12-03T17:55:18Z</time>
      </trkpt>
      <trkpt lat="60.014221358399" lon="15.793213111817">
        <ele>137</ele>
        <time>2018-12-03T17:55:24Z</time>
      </trkpt>
      <trkpt lat="60.014206522436" lon="15.793001887937">
        <ele>136</ele>
        <time>2018-12-03T17:55:30Z</time>
      </trkpt>
      <trkpt lat="60.014142065625" lon="15.792939694239">
        <ele>135.4</ele>
        <time>2018-12-03T17:55:36Z</time>
      </trkpt>
      <trkpt lat="60.014069310733" lon="15.79282226382">
        <ele>136</ele>
        <time>2018-12-03T17:55:42Z</time>
      </trkpt>
      <trkpt lat="60.013979708222" lon="15.792727883626">
        <ele>136.4</ele>
        <time>2018-12-03T17:55:48Z</time>
      </trkpt>
      <trkpt lat="60.013845430184" lon="15.792736684621">
        <ele>135.8</ele>
        <time>2018-12-03T17:55:54Z</time>
      </trkpt>
      <trkpt lat="60.013725485195" lon="15.7926395384">
        <ele>136</ele>
        <time>2018-12-03T17:56:00Z</time>
      </trkpt>
      <trkpt lat="60.013634793037" lon="15.792479695567">
        <ele>136</ele>
        <time>2018-12-03T17:56:06Z</time>
      </trkpt>
      <trkpt lat="60.013578969583" lon="15.792420435534">
        <ele>135.8</ele>
        <time>2018-12-03T17:56:12Z</time>
      </trkpt>
      <trkpt lat="60.013614844115" lon="15.792383974269">
        <ele>135.4</ele>
        <time>2018-12-03T17:56:18Z</time>
      </trkpt>
      <trkpt lat="60.013587435302" lon="15.792396044205">
        <ele>135.6</ele>
        <time>2018-12-03T17:56:24Z</time>
      </trkpt>
      <trkpt lat="60.013485008484" lon="15.792479025015">
        <ele>136</ele>
        <time>2018-12-03T17:56:30Z</time>
      </trkpt>
      <trkpt lat="60.013417869465" lon="15.792431248185">
        <ele>135.2</ele>
        <time>2018-12-03T17:56:36Z</time>
      </trkpt>
      <trkpt lat="60.01338895191" lon="15.792434349488">
        <ele>135.2</ele>
        <time>2018-12-03T17:56:38Z</time>
      </trkpt>
      <trkpt lat="60.013341091261" lon="15.792455052781">
        <ele>135.2</ele>
        <time>2018-12-03T17:56:41Z</time>
      </trkpt>
      <trkpt lat="60.013280154848" lon="15.792491849322">
        <ele>134.8</ele>
        <time>2018-12-03T17:56:46Z</time>
      </trkpt>
      <trkpt lat="60.013206310309" lon="15.792515653918">
        <ele>134.4</ele>
        <time>2018-12-03T17:56:52Z</time>
      </trkpt>
      <trkpt lat="60.013202119359" lon="15.792519341954">
        <ele>134.4</ele>
        <time>2018-12-03T17:56:53Z</time>
      </trkpt>
      <trkpt lat="60.013178398582" lon="15.792582876756">
        <ele>134</ele>
        <time>2018-12-03T17:57:04Z</time>
      </trkpt>
      <trkpt lat="60.013185523197" lon="15.792735594974">
        <ele>134.6</ele>
        <time>2018-12-03T17:57:10Z</time>
      </trkpt>
      <trkpt lat="60.013188205405" lon="15.792841458371">
        <ele>135</ele>
        <time>2018-12-03T17:57:16Z</time>
      </trkpt>
      <trkpt lat="60.01316766975" lon="15.793028123284">
        <ele>135</ele>
        <time>2018-12-03T17:57:25Z</time>
      </trkpt>
      <trkpt lat="60.013170687234" lon="15.793179668036">
        <ele>135.2</ele>
        <time>2018-12-03T17:57:31Z</time>
      </trkpt>
      <trkpt lat="60.013183260084" lon="15.793276059886">
        <ele>135.2</ele>
        <time>2018-12-03T17:57:34Z</time>
      </trkpt>
      <trkpt lat="60.013182002799" lon="15.793469095043">
        <ele>135.8</ele>
        <time>2018-12-03T17:57:40Z</time>
      </trkpt>
      <trkpt lat="60.0131802426" lon="15.793501281539">
        <ele>136</ele>
        <time>2018-12-03T17:57:41Z</time>
      </trkpt>
      <trkpt lat="60.013190552337" lon="15.793542771944">
        <ele>136.2</ele>
        <time>2018-12-03T17:57:44Z</time>
      </trkpt>
      <trkpt lat="60.013208154327" lon="15.793603289262">
        <ele>136.2</ele>
        <time>2018-12-03T17:57:46Z</time>
      </trkpt>
      <trkpt lat="60.01320874106" lon="15.793750391607">
        <ele>136.2</ele>
        <time>2018-12-03T17:57:52Z</time>
      </trkpt>
      <trkpt lat="60.013190049423" lon="15.793773022737">
        <ele>136</ele>
        <time>2018-12-03T17:57:56Z</time>
      </trkpt>
      <trkpt lat="60.013226678326" lon="15.793537994261">
        <ele>136.2</ele>
        <time>2018-12-03T17:58:05Z</time>
      </trkpt>
      <trkpt lat="60.01323388676" lon="15.793343869457">
        <ele>136.2</ele>
        <time>2018-12-03T17:58:11Z</time>
      </trkpt>
      <trkpt lat="60.0132556797" lon="15.793156198716">
        <ele>135.6</ele>
        <time>2018-12-03T17:58:17Z</time>
      </trkpt>
      <trkpt lat="60.013263977781" lon="15.793100123805">
        <ele>135.4</ele>
        <time>2018-12-03T17:58:19Z</time>
      </trkpt>
      <trkpt lat="60.013284597255" lon="15.792983447757">
        <ele>135</ele>
        <time>2018-12-03T17:58:24Z</time>
      </trkpt>
      <trkpt lat="60.013292392422" lon="15.792935838565">
        <ele>134.8</ele>
        <time>2018-12-03T17:58:26Z</time>
      </trkpt>
      <trkpt lat="60.013184014455" lon="15.792712125654">
        <ele>134.6</ele>
        <time>2018-12-03T17:58:32Z</time>
      </trkpt>
      <trkpt lat="60.013161970058" lon="15.792667366308">
        <ele>134.6</ele>
        <time>2018-12-03T17:58:34Z</time>
      </trkpt>
      <trkpt lat="60.013150486855" lon="15.792625540627">
        <ele>134.6</ele>
        <time>2018-12-03T17:58:36Z</time>
      </trkpt>
      <trkpt lat="60.01312324568" lon="15.792519509592">
        <ele>134.6</ele>
        <time>2018-12-03T17:58:42Z</time>
      </trkpt>
      <trkpt lat="60.013085443311" lon="15.792528813501">
        <ele>134.6</ele>
        <time>2018-12-03T17:58:44Z</time>
      </trkpt>
      <trkpt lat="60.01301344279" lon="15.792459411369">
        <ele>133.8</ele>
        <time>2018-12-03T17:58:48Z</time>
      </trkpt>
      <trkpt lat="60.0129287856" lon="15.792510876235">
        <ele>133.2</ele>
        <time>2018-12-03T17:58:54Z</time>
      </trkpt>
      <trkpt lat="60.012883104245" lon="15.792502829611">
        <ele>133</ele>
        <time>2018-12-03T17:59:00Z</time>
      </trkpt>
      <trkpt lat="60.012864999341" lon="15.792505511819">
        <ele>133</ele>
        <time>2018-12-03T17:59:01Z</time>
      </trkpt>
      <trkpt lat="60.01281311538" lon="15.79251297171">
        <ele>133</ele>
        <time>2018-12-03T17:59:03Z</time>
      </trkpt>
      <trkpt lat="60.012665258664" lon="15.792603328592">
        <ele>132.8</ele>
        <time>2018-12-03T17:59:07Z</time>
      </trkpt>
      <trkpt lat="60.012639358593" lon="15.792792172799">
        <ele>132.2</ele>
        <time>2018-12-03T17:59:13Z</time>
      </trkpt>
      <trkpt lat="60.012669952528" lon="15.792912620702">
        <ele>132.2</ele>
        <time>2018-12-03T17:59:19Z</time>
      </trkpt>
      <trkpt lat="60.012669114338" lon="15.793061650884">
        <ele>132.6</ele>
        <time>2018-12-03T17:59:25Z</time>
      </trkpt>
      <trkpt lat="60.012669701071" lon="15.79308880824">
        <ele>132.6</ele>
        <time>2018-12-03T17:59:26Z</time>
      </trkpt>
      <trkpt lat="60.012675903677" lon="15.793154941431">
        <ele>132.6</ele>
        <time>2018-12-03T17:59:28Z</time>
      </trkpt>
      <trkpt lat="60.012666935044" lon="15.793223673011">
        <ele>132.6</ele>
        <time>2018-12-03T17:59:30Z</time>
      </trkpt>
      <trkpt lat="60.012648494864" lon="15.793407152802">
        <ele>132.8</ele>
        <time>2018-12-03T17:59:36Z</time>
      </trkpt>
      <trkpt lat="60.012661989723" lon="15.793501449177">
        <ele>133.8</ele>
        <time>2018-12-03T17:59:42Z</time>
      </trkpt>
      <trkpt lat="60.012662073542" lon="15.793491893811">
        <ele>133.8</ele>
        <time>2018-12-03T17:59:43Z</time>
      </trkpt>
      <trkpt lat="60.012659307515" lon="15.79348862487">
        <ele>133.8</ele>
        <time>2018-12-03T17:59:45Z</time>
      </trkpt>
      <trkpt lat="60.012432325663" lon="15.792556809047">
        <ele>131.6</ele>
        <time>2018-12-03T18:02:23Z</time>
      </trkpt>
      <trkpt lat="60.012385051747" lon="15.792560999997">
        <ele>130.6</ele>
        <time>2018-12-03T18:02:26Z</time>
      </trkpt>
      <trkpt lat="60.012372562716" lon="15.792553037192">
        <ele>130.2</ele>
        <time>2018-12-03T18:02:27Z</time>
      </trkpt>
      <trkpt lat="60.012314811425" lon="15.792336029801">
        <ele>129.8</ele>
        <time>2018-12-03T18:02:33Z</time>
      </trkpt>
      <trkpt lat="60.012306261887" lon="15.792057415445">
        <ele>129.4</ele>
        <time>2018-12-03T18:02:37Z</time>
      </trkpt>
      <trkpt lat="60.012291677381" lon="15.791593896375">
        <ele>129.6</ele>
        <time>2018-12-03T18:02:43Z</time>
      </trkpt>
      <trkpt lat="60.012256221944" lon="15.791504293864">
        <ele>129.2</ele>
        <time>2018-12-03T18:02:47Z</time>
      </trkpt>
      <trkpt lat="60.012148514529" lon="15.791656090073">
        <ele>129.2</ele>
        <time>2018-12-03T18:03:07Z</time>
      </trkpt>
      <trkpt lat="60.012122279182" lon="15.791884748305">
        <ele>129.6</ele>
        <time>2018-12-03T18:03:13Z</time>
      </trkpt>
      <trkpt lat="60.012092774894" lon="15.791918695">
        <ele>129.6</ele>
        <time>2018-12-03T18:03:17Z</time>
      </trkpt>
      <trkpt lat="60.012071065773" lon="15.792024055483">
        <ele>129.4</ele>
        <time>2018-12-03T18:03:20Z</time>
      </trkpt>
      <trkpt lat="60.012064946986" lon="15.792061522576">
        <ele>129.4</ele>
        <time>2018-12-03T18:03:21Z</time>
      </trkpt>
      <trkpt lat="60.012057654733" lon="15.792158165883">
        <ele>129.4</ele>
        <time>2018-12-03T18:03:24Z</time>
      </trkpt>
      <trkpt lat="60.01210987397" lon="15.792322115847">
        <ele>129.4</ele>
        <time>2018-12-03T18:03:28Z</time>
      </trkpt>
      <trkpt lat="60.012179108464" lon="15.79223972177">
        <ele>130.2</ele>
        <time>2018-12-03T18:03:36Z</time>
      </trkpt>
      <trkpt lat="60.012197297187" lon="15.792178952995">
        <ele>129.8</ele>
        <time>2018-12-03T18:03:38Z</time>
      </trkpt>
      <trkpt lat="60.012299221091" lon="15.791681654868">
        <ele>129.2</ele>
        <time>2018-12-03T18:03:44Z</time>
      </trkpt>
      <trkpt lat="60.012355882735" lon="15.79155408235">
        <ele>129.2</ele>
        <time>2018-12-03T18:03:47Z</time>
      </trkpt>
      <trkpt lat="60.012397121683" lon="15.791501444018">
        <ele>129.4</ele>
        <time>2018-12-03T18:03:51Z</time>
      </trkpt>
      <trkpt lat="60.012378597684" lon="15.791504461502">
        <ele>129.4</ele>
        <time>2018-12-03T18:03:54Z</time>
      </trkpt>
      <trkpt lat="60.012298550539" lon="15.791450565885">
        <ele>128.4</ele>
        <time>2018-12-03T18:04:04Z</time>
      </trkpt>
      <trkpt lat="60.012254377926" lon="15.791356101872">
        <ele>128.4</ele>
        <time>2018-12-03T18:04:06Z</time>
      </trkpt>
      <trkpt lat="60.012208026019" lon="15.791024933003">
        <ele>128.2</ele>
        <time>2018-12-03T18:04:12Z</time>
      </trkpt>
      <trkpt lat="60.012193776789" lon="15.79072343606">
        <ele>128.2</ele>
        <time>2018-12-03T18:04:18Z</time>
      </trkpt>
      <trkpt lat="60.012232668805" lon="15.790339209764">
        <ele>128.4</ele>
        <time>2018-12-03T18:04:24Z</time>
      </trkpt>
      <trkpt lat="60.012290587734" lon="15.79004282578">
        <ele>128.2</ele>
        <time>2018-12-03T18:04:30Z</time>
      </trkpt>
      <trkpt lat="60.012350518319" lon="15.789690031609">
        <ele>128.2</ele>
        <time>2018-12-03T18:04:36Z</time>
      </trkpt>
      <trkpt lat="60.012411287094" lon="15.789402113344">
        <ele>128.4</ele>
        <time>2018-12-03T18:04:42Z</time>
      </trkpt>
      <trkpt lat="60.012418998442" lon="15.789394485815">
        <ele>128.4</ele>
        <time>2018-12-03T18:04:44Z</time>
      </trkpt>
      <trkpt lat="60.012500302872" lon="15.78952817712">
        <ele>128.4</ele>
        <time>2018-12-03T18:05:47Z</time>
      </trkpt>
      <trkpt lat="60.012439534097" lon="15.789551394983">
        <ele>128.4</ele>
        <time>2018-12-03T18:05:50Z</time>
      </trkpt>
      <trkpt lat="60.012385387023" lon="15.78943429984">
        <ele>129.2</ele>
        <time>2018-12-03T18:05:56Z</time>
      </trkpt>
      <trkpt lat="60.012466020901" lon="15.789464893775">
        <ele>129</ele>
        <time>2018-12-03T18:06:15Z</time>
      </trkpt>
      <trkpt lat="60.012537267051" lon="15.789499427203">
        <ele>129</ele>
        <time>2018-12-03T18:06:19Z</time>
      </trkpt>
      <trkpt lat="60.012636844023" lon="15.789542174893">
        <ele>129.2</ele>
        <time>2018-12-03T18:06:25Z</time>
      </trkpt>
      <trkpt lat="60.012676155134" lon="15.78943681441">
        <ele>129.4</ele>
        <time>2018-12-03T18:06:29Z</time>
      </trkpt>
      <trkpt lat="60.01254154182" lon="15.789310163901">
        <ele>128.8</ele>
        <time>2018-12-03T18:06:35Z</time>
      </trkpt>
      <trkpt lat="60.013221062453" lon="15.787952044644">
        <ele>129.8</ele>
        <time>2018-12-03T18:08:31Z</time>
      </trkpt>
      <trkpt lat="60.013335223931" lon="15.787943746563">
        <ele>129.4</ele>
        <time>2018-12-03T18:08:37Z</time>
      </trkpt>
      <trkpt lat="60.013414600524" lon="15.787948440427">
        <ele>129.6</ele>
        <time>2018-12-03T18:08:43Z</time>
      </trkpt>
      <trkpt lat="60.013429939401" lon="15.787942656916">
        <ele>129.6</ele>
        <time>2018-12-03T18:08:44Z</time>
      </trkpt>
      <trkpt lat="60.013503113388" lon="15.787949530074">
        <ele>130</ele>
        <time>2018-12-03T18:08:50Z</time>
      </trkpt>
      <trkpt lat="60.013556841367" lon="15.787944165658">
        <ele>130.2</ele>
        <time>2018-12-03T18:08:54Z</time>
      </trkpt>
      <trkpt lat="60.013607551862" lon="15.787925306383">
        <ele>129.8</ele>
        <time>2018-12-03T18:09:00Z</time>
      </trkpt>
      <trkpt lat="60.01360855769" lon="15.787915331922">
        <ele>129.8</ele>
        <time>2018-12-03T18:09:03Z</time>
      </trkpt>
      <trkpt lat="60.013668655913" lon="15.787982219484">
        <ele>129.8</ele>
        <time>2018-12-03T18:09:11Z</time>
      </trkpt>
      <trkpt lat="60.013721042788" lon="15.788079449524">
        <ele>129.4</ele>
        <time>2018-12-03T18:09:15Z</time>
      </trkpt>
      <trkpt lat="60.013774938405" lon="15.788114066771">
        <ele>129.6</ele>
        <time>2018-12-03T18:09:19Z</time>
      </trkpt>
      <trkpt lat="60.013867474581" lon="15.788169052035">
        <ele>129.8</ele>
        <time>2018-12-03T18:09:25Z</time>
      </trkpt>
      <trkpt lat="60.013943917509" lon="15.788306850471">
        <ele>130</ele>
        <time>2018-12-03T18:09:31Z</time>
      </trkpt>
      <trkpt lat="60.014022288274" lon="15.788361249002">
        <ele>130</ele>
        <time>2018-12-03T18:09:37Z</time>
      </trkpt>
      <trkpt lat="60.014087247999" lon="15.788469291693">
        <ele>130</ele>
        <time>2018-12-03T18:09:43Z</time>
      </trkpt>
      <trkpt lat="60.014164612936" lon="15.788546321354">
        <ele>130.2</ele>
        <time>2018-12-03T18:09:49Z</time>
      </trkpt>
      <trkpt lat="60.014247929022" lon="15.788666098705">
        <ele>130.4</ele>
        <time>2018-12-03T18:09:55Z</time>
      </trkpt>
      <trkpt lat="60.014324623407" lon="15.788738434502">
        <ele>130</ele>
        <time>2018-12-03T18:10:01Z</time>
      </trkpt>
      <trkpt lat="60.014351864582" lon="15.788800963476">
        <ele>129.8</ele>
        <time>2018-12-03T18:10:07Z</time>
      </trkpt>
      <trkpt lat="60.014337699171" lon="15.788806998444">
        <ele>129.8</ele>
        <time>2018-12-03T18:10:08Z</time>
      </trkpt>
      <trkpt lat="60.014331748022" lon="15.788908419434">
        <ele>129.6</ele>
        <time>2018-12-03T18:10:16Z</time>
      </trkpt>
      <trkpt lat="60.014324707226" lon="15.789067004982">
        <ele>130</ele>
        <time>2018-12-03T18:10:20Z</time>
      </trkpt>
      <trkpt lat="60.014385308363" lon="15.789164737936">
        <ele>130.4</ele>
        <time>2018-12-03T18:10:26Z</time>
      </trkpt>
      <trkpt lat="60.014451106278" lon="15.78923900157">
        <ele>130.8</ele>
        <time>2018-12-03T18:10:30Z</time>
      </trkpt>
      <trkpt lat="60.014541211703" lon="15.789379230757">
        <ele>131.2</ele>
        <time>2018-12-03T18:10:36Z</time>
      </trkpt>
      <trkpt lat="60.014619917744" lon="15.78950554599">
        <ele>130.8</ele>
        <time>2018-12-03T18:10:42Z</time>
      </trkpt>
      <trkpt lat="60.014666102013" lon="15.789588359162">
        <ele>130.8</ele>
        <time>2018-12-03T18:10:47Z</time>
      </trkpt>
      <trkpt lat="60.014699126699" lon="15.789670334144">
        <ele>131.2</ele>
        <time>2018-12-03T18:10:53Z</time>
      </trkpt>
      <trkpt lat="60.014710190807" lon="15.789679386596">
        <ele>131.2</ele>
        <time>2018-12-03T18:10:54Z</time>
      </trkpt>
      <trkpt lat="60.014735755602" lon="15.789690115428">
        <ele>131.2</ele>
        <time>2018-12-03T18:10:56Z</time>
      </trkpt>
      <trkpt lat="60.014756961809" lon="15.789691456532">
        <ele>130.2</ele>
        <time>2018-12-03T18:11:00Z</time>
      </trkpt>
      <trkpt lat="60.014852850745" lon="15.790187413555">
        <ele>130.8</ele>
        <time>2018-12-03T18:11:22Z</time>
      </trkpt>
      <trkpt lat="60.01489182658" lon="15.790328816208">
        <ele>131.2</ele>
        <time>2018-12-03T18:11:28Z</time>
      </trkpt>
      <trkpt lat="60.014894508788" lon="15.79034122142">
        <ele>131.2</ele>
        <time>2018-12-03T18:11:29Z</time>
      </trkpt>
      <trkpt lat="60.015022332763" lon="15.791060891354">
        <ele>132.2</ele>
        <time>2018-12-03T18:12:39Z</time>
      </trkpt>
      <trkpt lat="60.015222492535" lon="15.791209753898">
        <ele>132</ele>
        <time>2018-12-03T18:12:45Z</time>
      </trkpt>
      <trkpt lat="60.015266665148" lon="15.791227104431">
        <ele>131.8</ele>
        <time>2018-12-03T18:12:46Z</time>
      </trkpt>
      <trkpt lat="60.015536729966" lon="15.791306229567">
        <ele>131.4</ele>
        <time>2018-12-03T18:12:52Z</time>
      </trkpt>
      <trkpt lat="60.015622309165" lon="15.791320059702">
        <ele>131.2</ele>
        <time>2018-12-03T18:12:54Z</time>
      </trkpt>
      <trkpt lat="60.015856415632" lon="15.791428437669">
        <ele>131</ele>
        <time>2018-12-03T18:13:00Z</time>
      </trkpt>
      <trkpt lat="60.015918776968" lon="15.791554585264">
        <ele>131</ele>
        <time>2018-12-03T18:13:02Z</time>
      </trkpt>
      <trkpt lat="60.015947526885" lon="15.791987091304">
        <ele>130.8</ele>
        <time>2018-12-03T18:13:08Z</time>
      </trkpt>
      <trkpt lat="60.015947191609" lon="15.792424542665">
        <ele>131.4</ele>
        <time>2018-12-03T18:13:14Z</time>
      </trkpt>
      <trkpt lat="60.015958758631" lon="15.792837602697">
        <ele>132.2</ele>
        <time>2018-12-03T18:13:19Z</time>
      </trkpt>
      <trkpt lat="60.015946521057" lon="15.793337247756">
        <ele>133.2</ele>
        <time>2018-12-03T18:13:25Z</time>
      </trkpt>
      <trkpt lat="60.015946437238" lon="15.793418049272">
        <ele>133.6</ele>
        <time>2018-12-03T18:13:26Z</time>
      </trkpt>
      <trkpt lat="60.015948867989" lon="15.793729855952">
        <ele>134.6</ele>
        <time>2018-12-03T18:13:30Z</time>
      </trkpt>
      <trkpt lat="60.015866893007" lon="15.794123889071">
        <ele>135.6</ele>
        <time>2018-12-03T18:13:36Z</time>
      </trkpt>
      <trkpt lat="60.015800508359" lon="15.794421195064">
        <ele>136.4</ele>
        <time>2018-12-03T18:13:42Z</time>
      </trkpt>
      <trkpt lat="60.015861444772" lon="15.794474168672">
        <ele>136.6</ele>
        <time>2018-12-03T18:13:45Z</time>
      </trkpt>
      <trkpt lat="60.015914753656" lon="15.794301752989">
        <ele>137</ele>
        <time>2018-12-03T18:13:49Z</time>
      </trkpt>
      <trkpt lat="60.015923722289" lon="15.793898248323">
        <ele>136.8</ele>
        <time>2018-12-03T18:13:55Z</time>
      </trkpt>
      <trkpt lat="60.015926488316" lon="15.793553919871">
        <ele>136.2</ele>
        <time>2018-12-03T18:14:01Z</time>
      </trkpt>
      <trkpt lat="60.015922381185" lon="15.793526594877">
        <ele>136</ele>
        <time>2018-12-03T18:14:03Z</time>
      </trkpt>
      <trkpt lat="60.01588340535" lon="15.793497425865">
        <ele>135.8</ele>
        <time>2018-12-03T18:14:06Z</time>
      </trkpt>
      <trkpt lat="60.015778212505" lon="15.793393406486">
        <ele>135.8</ele>
        <time>2018-12-03T18:14:12Z</time>
      </trkpt>
      <trkpt lat="60.015781732903" lon="15.793343785638">
        <ele>136.2</ele>
        <time>2018-12-03T18:14:16Z</time>
      </trkpt>
      <trkpt lat="60.015761616343" lon="15.793451241596">
        <ele>136.4</ele>
        <time>2018-12-03T18:14:28Z</time>
      </trkpt>
      <trkpt lat="60.015725741811" lon="15.793467837758">
        <ele>136.6</ele>
        <time>2018-12-03T18:14:30Z</time>
      </trkpt>
      <trkpt lat="60.015640916983" lon="15.79344587718">
        <ele>136.4</ele>
        <time>2018-12-03T18:14:34Z</time>
      </trkpt>
      <trkpt lat="60.015627422124" lon="15.793411679028">
        <ele>136.2</ele>
        <time>2018-12-03T18:14:37Z</time>
      </trkpt>
      <trkpt lat="60.015602108786" lon="15.793505891584">
        <ele>136.6</ele>
        <time>2018-12-03T18:14:49Z</time>
      </trkpt>
      <trkpt lat="60.015463891255" lon="15.793540760288">
        <ele>136.6</ele>
        <time>2018-12-03T18:14:55Z</time>
      </trkpt>
      <trkpt lat="60.015424496325" lon="15.793479823875">
        <ele>136.4</ele>
        <time>2018-12-03T18:15:01Z</time>
      </trkpt>
      <trkpt lat="60.015425083058" lon="15.793472866898">
        <ele>136.4</ele>
        <time>2018-12-03T18:15:03Z</time>
      </trkpt>
      <trkpt lat="60.015581992226" lon="15.793532126931">
        <ele>136.4</ele>
        <time>2018-12-03T18:15:31Z</time>
      </trkpt>
      <trkpt lat="60.015612753799" lon="15.793496336218">
        <ele>136.4</ele>
        <time>2018-12-03T18:15:34Z</time>
      </trkpt>
      <trkpt lat="60.015645024114" lon="15.793443278791">
        <ele>136.4</ele>
        <time>2018-12-03T18:15:40Z</time>
      </trkpt>
      <trkpt lat="60.01564703577" lon="15.793559535744">
        <ele>136.2</ele>
        <time>2018-12-03T18:16:05Z</time>
      </trkpt>
      <trkpt lat="60.015736973557" lon="15.793519051167">
        <ele>136.4</ele>
        <time>2018-12-03T18:16:11Z</time>
      </trkpt>
      <trkpt lat="60.015805537499" lon="15.793448224112">
        <ele>136.4</ele>
        <time>2018-12-03T18:16:17Z</time>
      </trkpt>
      <trkpt lat="60.015857924374" lon="15.79340648225">
        <ele>136</ele>
        <time>2018-12-03T18:16:21Z</time>
      </trkpt>
      <trkpt lat="60.015922465004" lon="15.793321405965">
        <ele>135.8</ele>
        <time>2018-12-03T18:16:27Z</time>
      </trkpt>
      <trkpt lat="60.015922213547" lon="15.793304474527">
        <ele>135.6</ele>
        <time>2018-12-03T18:16:28Z</time>
      </trkpt>
      <trkpt lat="60.01593118218" lon="15.793275892248">
        <ele>135.2</ele>
        <time>2018-12-03T18:16:34Z</time>
      </trkpt>
      <trkpt lat="60.015937971519" lon="15.793210429609">
        <ele>135.2</ele>
        <time>2018-12-03T18:16:37Z</time>
      </trkpt>
      <trkpt lat="60.015949287084" lon="15.793149828472">
        <ele>134.6</ele>
        <time>2018-12-03T18:16:41Z</time>
      </trkpt>
      <trkpt lat="60.015305138069" lon="15.793125185686">
        <ele>134.2</ele>
        <time>2018-12-03T18:17:58Z</time>
      </trkpt>
      <trkpt lat="60.015220061784" lon="15.793174638896">
        <ele>134.4</ele>
        <time>2018-12-03T18:18:04Z</time>
      </trkpt>
      <trkpt lat="60.015126855056" lon="15.793172794878">
        <ele>134</ele>
        <time>2018-12-03T18:18:10Z</time>
      </trkpt>
      <trkpt lat="60.015093578913" lon="15.79312736498">
        <ele>134</ele>
        <time>2018-12-03T18:18:13Z</time>
      </trkpt>
      <trkpt lat="60.015066924471" lon="15.792958385876">
        <ele>134</ele>
        <time>2018-12-03T18:18:19Z</time>
      </trkpt>
      <trkpt lat="60.015068014118" lon="15.792904825535">
        <ele>134.4</ele>
        <time>2018-12-03T18:18:21Z</time>
      </trkpt>
      <trkpt lat="60.015053010517" lon="15.792869705374">
        <ele>135.2</ele>
        <time>2018-12-03T18:18:27Z</time>
      </trkpt>
      <trkpt lat="60.015053932526" lon="15.792865179148">
        <ele>135.4</ele>
        <time>2018-12-03T18:18:28Z</time>
      </trkpt>
      <trkpt lat="60.014968269508" lon="15.792806086753">
        <ele>135.6</ele>
        <time>2018-12-03T18:18:38Z</time>
      </trkpt>
      <trkpt lat="60.014960306703" lon="15.792721345744">
        <ele>135.4</ele>
        <time>2018-12-03T18:18:41Z</time>
      </trkpt>
      <trkpt lat="60.014968520965" lon="15.792551444631">
        <ele>135.2</ele>
        <time>2018-12-03T18:18:47Z</time>
      </trkpt>
      <trkpt lat="60.014971706087" lon="15.79247441497">
        <ele>135.2</ele>
        <time>2018-12-03T18:18:52Z</time>
      </trkpt>
      <trkpt lat="60.014959300875" lon="15.792419178249">
        <ele>135.4</ele>
        <time>2018-12-03T18:19:07Z</time>
      </trkpt>
      <trkpt lat="60.014954942287" lon="15.792243661263">
        <ele>135.2</ele>
        <time>2018-12-03T18:19:13Z</time>
      </trkpt>
      <trkpt lat="60.014991319733" lon="15.792190100922">
        <ele>135.2</ele>
        <time>2018-12-03T18:19:19Z</time>
      </trkpt>
      <trkpt lat="60.015006826248" lon="15.792187251076">
        <ele>135.2</ele>
        <time>2018-12-03T18:19:25Z</time>
      </trkpt>
      <trkpt lat="60.015013531768" lon="15.792204266333">
        <ele>135.4</ele>
        <time>2018-12-03T18:19:28Z</time>
      </trkpt>
      <trkpt lat="60.015021326935" lon="15.79233527543">
        <ele>135.2</ele>
        <time>2018-12-03T18:19:43Z</time>
      </trkpt>
      <trkpt lat="60.014978746883" lon="15.792398558775">
        <ele>135.4</ele>
        <time>2018-12-03T18:19:47Z</time>
      </trkpt>
      <trkpt lat="60.014899789385" lon="15.792460501016">
        <ele>135.4</ele>
        <time>2018-12-03T18:19:53Z</time>
      </trkpt>
      <trkpt lat="60.014867016156" lon="15.792478354463">
        <ele>135.4</ele>
        <time>2018-12-03T18:19:56Z</time>
      </trkpt>
      <trkpt lat="60.01483650604" lon="15.792442312293">
        <ele>134.8</ele>
        <time>2018-12-03T18:20:02Z</time>
      </trkpt>
      <trkpt lat="60.014666185832" lon="15.792538620324">
        <ele>134.8</ele>
        <time>2018-12-03T18:21:09Z</time>
      </trkpt>
      <trkpt lat="60.014592425112" lon="15.792503667801">
        <ele>134.8</ele>
        <time>2018-12-03T18:21:15Z</time>
      </trkpt>
      <trkpt lat="60.01452050841" lon="15.792469553468">
        <ele>135</ele>
        <time>2018-12-03T18:21:21Z</time>
      </trkpt>
      <trkpt lat="60.014449513717" lon="15.792463602319">
        <ele>135</ele>
        <time>2018-12-03T18:21:27Z</time>
      </trkpt>
      <trkpt lat="60.014390253684" lon="15.792382130251">
        <ele>135</ele>
        <time>2018-12-03T18:21:33Z</time>
      </trkpt>
      <trkpt lat="60.014386984743" lon="15.792251037335">
        <ele>134.8</ele>
        <time>2018-12-03T18:21:38Z</time>
      </trkpt>
      <trkpt lat="60.014396372471" lon="15.792271237714">
        <ele>134.6</ele>
        <time>2018-12-03T18:21:47Z</time>
      </trkpt>
      <trkpt lat="60.014426798768" lon="15.792327815539">
        <ele>134.6</ele>
        <time>2018-12-03T18:21:50Z</time>
      </trkpt>
      <trkpt lat="60.014525872826" lon="15.792338376733">
        <ele>134.6</ele>
        <time>2018-12-03T18:21:56Z</time>
      </trkpt>
      <trkpt lat="60.014596113148" lon="15.792327899358">
        <ele>134.6</ele>
        <time>2018-12-03T18:22:02Z</time>
      </trkpt>
      <trkpt lat="60.014663587443" lon="15.792319768915">
        <ele>134.6</ele>
        <time>2018-12-03T18:22:07Z</time>
      </trkpt>
      <trkpt lat="60.014733157213" lon="15.792268974601">
        <ele>134.2</ele>
        <time>2018-12-03T18:22:13Z</time>
      </trkpt>
      <trkpt lat="60.014740868561" lon="15.792236201372">
        <ele>134.2</ele>
        <time>2018-12-03T18:22:17Z</time>
      </trkpt>
      <trkpt lat="60.014744388959" lon="15.792336029801">
        <ele>134.8</ele>
        <time>2018-12-03T18:22:50Z</time>
      </trkpt>
      <trkpt lat="60.014677417578" lon="15.792338125276">
        <ele>134.8</ele>
        <time>2018-12-03T18:22:54Z</time>
      </trkpt>
      <trkpt lat="60.014583959393" lon="15.792320690924">
        <ele>134.6</ele>
        <time>2018-12-03T18:23:00Z</time>
      </trkpt>
      <trkpt lat="60.014497793461" lon="15.792316751431">
        <ele>134.8</ele>
        <time>2018-12-03T18:23:06Z</time>
      </trkpt>
      <trkpt lat="60.014421266714" lon="15.792303843305">
        <ele>135</ele>
        <time>2018-12-03T18:23:12Z</time>
      </trkpt>
      <trkpt lat="60.014382877612" lon="15.792237710114">
        <ele>134.8</ele>
        <time>2018-12-03T18:23:18Z</time>
      </trkpt>
      <trkpt lat="60.014404167638" lon="15.79227492575">
        <ele>134.8</ele>
        <time>2018-12-03T18:23:23Z</time>
      </trkpt>
      <trkpt lat="60.014451441554" lon="15.792375340912">
        <ele>135.2</ele>
        <time>2018-12-03T18:23:28Z</time>
      </trkpt>
      <trkpt lat="60.014533667993" lon="15.79238221407">
        <ele>135.2</ele>
        <time>2018-12-03T18:23:34Z</time>
      </trkpt>
      <trkpt lat="60.01457079981" lon="15.79237718493">
        <ele>135.2</ele>
        <time>2018-12-03T18:23:37Z</time>
      </trkpt>
      <trkpt lat="60.014583205022" lon="15.792353883248">
        <ele>135.2</ele>
        <time>2018-12-03T18:23:40Z</time>
      </trkpt>
      <trkpt lat="60.014577086235" lon="15.792435271497">
        <ele>135.4</ele>
        <time>2018-12-03T18:23:53Z</time>
      </trkpt>
      <trkpt lat="60.014487986638" lon="15.79241406529">
        <ele>135.6</ele>
        <time>2018-12-03T18:23:59Z</time>
      </trkpt>
      <trkpt lat="60.014385476001" lon="15.792399396965">
        <ele>135.2</ele>
        <time>2018-12-03T18:24:05Z</time>
      </trkpt>
      <trkpt lat="60.014370891495" lon="15.792385734468">
        <ele>135.2</ele>
        <time>2018-12-03T18:24:06Z</time>
      </trkpt>
      <trkpt lat="60.014347505994" lon="15.792237374838">
        <ele>135.2</ele>
        <time>2018-12-03T18:24:12Z</time>
      </trkpt>
      <trkpt lat="60.01434029756" lon="15.792164787584">
        <ele>135</ele>
        <time>2018-12-03T18:24:14Z</time>
      </trkpt>
      <trkpt lat="60.01433191566" lon="15.791964879269">
        <ele>135.2</ele>
        <time>2018-12-03T18:24:20Z</time>
      </trkpt>
      <trkpt lat="60.014303333381" lon="15.791791122482">
        <ele>135</ele>
        <time>2018-12-03T18:24:26Z</time>
      </trkpt>
      <trkpt lat="60.014306183227" lon="15.791695904098">
        <ele>134.8</ele>
        <time>2018-12-03T18:24:29Z</time>
      </trkpt>
      <trkpt lat="60.014321186828" lon="15.791525835347">
        <ele>135</ele>
        <time>2018-12-03T18:24:35Z</time>
      </trkpt>
      <trkpt lat="60.014329568728" lon="15.791360292822">
        <ele>134.6</ele>
        <time>2018-12-03T18:24:41Z</time>
      </trkpt>
      <trkpt lat="60.014336358067" lon="15.791220734187">
        <ele>134.6</ele>
        <time>2018-12-03T18:24:47Z</time>
      </trkpt>
      <trkpt lat="60.014343315044" lon="15.791084193036">
        <ele>134.6</ele>
        <time>2018-12-03T18:24:53Z</time>
      </trkpt>
      <trkpt lat="60.014372903151" lon="15.791007498651">
        <ele>134.6</ele>
        <time>2018-12-03T18:24:57Z</time>
      </trkpt>
      <trkpt lat="60.014422607818" lon="15.790925691307">
        <ele>134.6</ele>
        <time>2018-12-03T18:25:02Z</time>
      </trkpt>
      <trkpt lat="60.014453117934" lon="15.790921081262">
        <ele>134.4</ele>
        <time>2018-12-03T18:25:07Z</time>
      </trkpt>
      <trkpt lat="60.014393438806" lon="15.791138423929">
        <ele>134.6</ele>
        <time>2018-12-03T18:25:29Z</time>
      </trkpt>
      <trkpt lat="60.014411627529" lon="15.791047899409">
        <ele>134.6</ele>
        <time>2018-12-03T18:25:32Z</time>
      </trkpt>
      <trkpt lat="60.014470803743" lon="15.790984616064">
        <ele>134.4</ele>
        <time>2018-12-03T18:25:38Z</time>
      </trkpt>
      <trkpt lat="60.014462757119" lon="15.790981682399">
        <ele>134.4</ele>
        <time>2018-12-03T18:25:39Z</time>
      </trkpt>
      <trkpt lat="60.014426882587" lon="15.791029543048">
        <ele>134.2</ele>
        <time>2018-12-03T18:25:43Z</time>
      </trkpt>
      <trkpt lat="60.014384470173" lon="15.791229451363">
        <ele>134.8</ele>
        <time>2018-12-03T18:25:52Z</time>
      </trkpt>
      <trkpt lat="60.014376088273" lon="15.791374206776">
        <ele>134.8</ele>
        <time>2018-12-03T18:25:58Z</time>
      </trkpt>
      <trkpt lat="60.014370220943" lon="15.791394742431">
        <ele>134.6</ele>
        <time>2018-12-03T18:25:59Z</time>
      </trkpt>
      <trkpt lat="60.014363347785" lon="15.79159347728">
        <ele>134.6</ele>
        <time>2018-12-03T18:26:05Z</time>
      </trkpt>
      <trkpt lat="60.014373322246" lon="15.791790535749">
        <ele>135</ele>
        <time>2018-12-03T18:26:11Z</time>
      </trkpt>
      <trkpt lat="60.014377094101" lon="15.791808640653">
        <ele>135</ele>
        <time>2018-12-03T18:26:12Z</time>
      </trkpt>
      <trkpt lat="60.014390756598" lon="15.791867313953">
        <ele>135.2</ele>
        <time>2018-12-03T18:26:15Z</time>
      </trkpt>
      <trkpt lat="60.014413052452" lon="15.792014667755">
        <ele>135.4</ele>
        <time>2018-12-03T18:26:21Z</time>
      </trkpt>
      <trkpt lat="60.014418500687" lon="15.792089853398">
        <ele>135.4</ele>
        <time>2018-12-03T18:26:23Z</time>
      </trkpt>
      <trkpt lat="60.014433252831" lon="15.792173337122">
        <ele>135.8</ele>
        <time>2018-12-03T18:26:26Z</time>
      </trkpt>
      <trkpt lat="60.01443417484" lon="15.792206613265">
        <ele>135.8</ele>
        <time>2018-12-03T18:26:29Z</time>
      </trkpt>
      <trkpt lat="60.014388493485" lon="15.792359080026">
        <ele>135</ele>
        <time>2018-12-03T18:27:20Z</time>
      </trkpt>
      <trkpt lat="60.014392852073" lon="15.79277700156">
        <ele>135.2</ele>
        <time>2018-12-03T18:27:26Z</time>
      </trkpt>
      <trkpt lat="60.01439058896" lon="15.793271366022">
        <ele>136</ele>
        <time>2018-12-03T18:27:32Z</time>
      </trkpt>
      <trkpt lat="60.014407017484" lon="15.793722396061">
        <ele>136.6</ele>
        <time>2018-12-03T18:27:38Z</time>
      </trkpt>
      <trkpt lat="60.014419757972" lon="15.793785176492">
        <ele>136.8</ele>
        <time>2018-12-03T18:27:39Z</time>
      </trkpt>
      <trkpt lat="60.014583624117" lon="15.793951473388">
        <ele>137</ele>
        <time>2018-12-03T18:27:45Z</time>
      </trkpt>
      <trkpt lat="60.014767103908" lon="15.793818201178">
        <ele>137</ele>
        <time>2018-12-03T18:27:51Z</time>
      </trkpt>
      <trkpt lat="60.014782358966" lon="15.793850974407">
        <ele>136.6</ele>
        <time>2018-12-03T18:27:53Z</time>
      </trkpt>
      <trkpt lat="60.014759979293" lon="15.793959436193">
        <ele>136.4</ele>
        <time>2018-12-03T18:27:57Z</time>
      </trkpt>
      <trkpt lat="60.014617989907" lon="15.794025317927">
        <ele>136.8</ele>
        <time>2018-12-03T18:28:03Z</time>
      </trkpt>
      <trkpt lat="60.014457392703" lon="15.793795150953">
        <ele>136.4</ele>
        <time>2018-12-03T18:28:09Z</time>
      </trkpt>
      <trkpt lat="60.014411878986" lon="15.793315873911">
        <ele>136</ele>
        <time>2018-12-03T18:28:15Z</time>
      </trkpt>
      <trkpt lat="60.014408777683" lon="15.793225349391">
        <ele>135.8</ele>
        <time>2018-12-03T18:28:16Z</time>
      </trkpt>
      <trkpt lat="60.014404083819" lon="15.793131053016">
        <ele>135.6</ele>
        <time>2018-12-03T18:28:17Z</time>
      </trkpt>
      <trkpt lat="60.014384805449" lon="15.792594443778">
        <ele>135.6</ele>
        <time>2018-12-03T18:28:23Z</time>
      </trkpt>
      <trkpt lat="60.014368628382" lon="15.792060181472">
        <ele>135.8</ele>
        <time>2018-12-03T18:28:29Z</time>
      </trkpt>
      <trkpt lat="60.014383296707" lon="15.791449140962">
        <ele>135.4</ele>
        <time>2018-12-03T18:28:35Z</time>
      </trkpt>
      <trkpt lat="60.014396791566" lon="15.790982101494">
        <ele>134.6</ele>
        <time>2018-12-03T18:28:41Z</time>
      </trkpt>
      <trkpt lat="60.014502654963" lon="15.790878333572">
        <ele>133.8</ele>
        <time>2018-12-03T18:28:46Z</time>
      </trkpt>
      <trkpt lat="60.014655121724" lon="15.79091957252">
        <ele>133.8</ele>
        <time>2018-12-03T18:28:50Z</time>
      </trkpt>
      <trkpt lat="60.014754698696" lon="15.790833155131">
        <ele>134</ele>
        <time>2018-12-03T18:28:53Z</time>
      </trkpt>
      <trkpt lat="60.014798033119" lon="15.790566526892">
        <ele>133.4</ele>
        <time>2018-12-03T18:28:57Z</time>
      </trkpt>
      <trkpt lat="60.014750926841" lon="15.790312052408">
        <ele>132.4</ele>
        <time>2018-12-03T18:29:02Z</time>
      </trkpt>
      <trkpt lat="60.014702898554" lon="15.790255390764">
        <ele>131.4</ele>
        <time>2018-12-03T18:29:07Z</time>
      </trkpt>
      <trkpt lat="60.014696695948" lon="15.790261258094">
        <ele>131.2</ele>
        <time>2018-12-03T18:29:08Z</time>
      </trkpt>
      <trkpt lat="60.014493099597" lon="15.790403666575">
        <ele>132.2</ele>
        <time>2018-12-03T18:29:39Z</time>
      </trkpt>
      <trkpt lat="60.014479520919" lon="15.790412802846">
        <ele>132.6</ele>
        <time>2018-12-03T18:29:40Z</time>
      </trkpt>
      <trkpt lat="60.014454794314" lon="15.790425543334">
        <ele>133.6</ele>
        <time>2018-12-03T18:29:42Z</time>
      </trkpt>
      <trkpt lat="60.014444652215" lon="15.790391093725">
        <ele>133.8</ele>
        <time>2018-12-03T18:29:48Z</time>
      </trkpt>
      <trkpt lat="60.014450351907" lon="15.790425459515">
        <ele>133.6</ele>
        <time>2018-12-03T18:29:50Z</time>
      </trkpt>
      <trkpt lat="60.014434845392" lon="15.79054657797">
        <ele>133.8</ele>
        <time>2018-12-03T18:29:52Z</time>
      </trkpt>
      <trkpt lat="60.014334178773" lon="15.790592762239">
        <ele>133.8</ele>
        <time>2018-12-03T18:29:58Z</time>
      </trkpt>
      <trkpt lat="60.0143034172" lon="15.790462339875">
        <ele>133.8</ele>
        <time>2018-12-03T18:30:04Z</time>
      </trkpt>
      <trkpt lat="60.014293023644" lon="15.790426884438">
        <ele>133.8</ele>
        <time>2018-12-03T18:30:05Z</time>
      </trkpt>
      <trkpt lat="60.014200571287" lon="15.790229490693">
        <ele>134.4</ele>
        <time>2018-12-03T18:30:11Z</time>
      </trkpt>
      <trkpt lat="60.014194536319" lon="15.790217253119">
        <ele>134.6</ele>
        <time>2018-12-03T18:30:12Z</time>
      </trkpt>
      <trkpt lat="60.014028909975" lon="15.789893879417">
        <ele>134.4</ele>
        <time>2018-12-03T18:30:29Z</time>
      </trkpt>
      <trkpt lat="60.014012229994" lon="15.789852305193">
        <ele>134.4</ele>
        <time>2018-12-03T18:30:31Z</time>
      </trkpt>
      <trkpt lat="60.014011810899" lon="15.789779047387">
        <ele>134.4</ele>
        <time>2018-12-03T18:30:35Z</time>
      </trkpt>
      <trkpt lat="60.013983647715" lon="15.789272026256">
        <ele>135</ele>
        <time>2018-12-03T18:30:48Z</time>
      </trkpt>
      <trkpt lat="60.01400418337" lon="15.789217627725">
        <ele>134.6</ele>
        <time>2018-12-03T18:30:50Z</time>
      </trkpt>
      <trkpt lat="60.014046428146" lon="15.789199774278">
        <ele>134</ele>
        <time>2018-12-03T18:30:53Z</time>
      </trkpt>
      <trkpt lat="60.014051708743" lon="15.78920463578">
        <ele>134</ele>
        <time>2018-12-03T18:30:55Z</time>
      </trkpt>
      <trkpt lat="60.01410560436" lon="15.789112602518">
        <ele>133.6</ele>
        <time>2018-12-03T18:31:03Z</time>
      </trkpt>
      <trkpt lat="60.014125469463" lon="15.789047223698">
        <ele>133.2</ele>
        <time>2018-12-03T18:31:05Z</time>
      </trkpt>
      <trkpt lat="60.014147010946" lon="15.789023167645">
        <ele>132.8</ele>
        <time>2018-12-03T18:31:07Z</time>
      </trkpt>
      <trkpt lat="60.01415170481" lon="15.78899676466">
        <ele>132.6</ele>
        <time>2018-12-03T18:31:10Z</time>
      </trkpt>
      <trkpt lat="60.014198894907" lon="15.788981006688">
        <ele>132.6</ele>
        <time>2018-12-03T18:31:13Z</time>
      </trkpt>
      <trkpt lat="60.014157991235" lon="15.788828372289">
        <ele>131.6</ele>
        <time>2018-12-03T18:31:18Z</time>
      </trkpt>
      <trkpt lat="60.014061599385" lon="15.78870758911">
        <ele>131</ele>
        <time>2018-12-03T18:31:24Z</time>
      </trkpt>
      <trkpt lat="60.013964285526" lon="15.788638773711">
        <ele>131.2</ele>
        <time>2018-12-03T18:31:30Z</time>
      </trkpt>
      <trkpt lat="60.013865714382" lon="15.788572389063">
        <ele>131.2</ele>
        <time>2018-12-03T18:31:35Z</time>
      </trkpt>
      <trkpt lat="60.013869402418" lon="15.788518661084">
        <ele>131</ele>
        <time>2018-12-03T18:31:38Z</time>
      </trkpt>
      <trkpt lat="60.013916676334" lon="15.788505920596">
        <ele>131</ele>
        <time>2018-12-03T18:31:43Z</time>
      </trkpt>
      <trkpt lat="60.013867390762" lon="15.788448672219">
        <ele>130.4</ele>
        <time>2018-12-03T18:31:50Z</time>
      </trkpt>
      <trkpt lat="60.013819446294" lon="15.788396955896">
        <ele>130.2</ele>
        <time>2018-12-03T18:31:52Z</time>
      </trkpt>
      <trkpt lat="60.013659603461" lon="15.788252871035">
        <ele>130.2</ele>
        <time>2018-12-03T18:31:58Z</time>
      </trkpt>
      <trkpt lat="60.013507807252" lon="15.788171650424">
        <ele>130</ele>
        <time>2018-12-03T18:32:04Z</time>
      </trkpt>
      <trkpt lat="60.013427843926" lon="15.788189336233">
        <ele>130</ele>
        <time>2018-12-03T18:32:10Z</time>
      </trkpt>
      <trkpt lat="60.013303875625" lon="15.788220935996">
        <ele>129.8</ele>
        <time>2018-12-03T18:32:16Z</time>
      </trkpt>
      <trkpt lat="60.013128526277" lon="15.788315400009">
        <ele>129.6</ele>
        <time>2018-12-03T18:32:22Z</time>
      </trkpt>
      <trkpt lat="60.013095166315" lon="15.788345407211">
        <ele>129.6</ele>
        <time>2018-12-03T18:32:26Z</time>
      </trkpt>
      <trkpt lat="60.012954518033" lon="15.788500723818">
        <ele>130.2</ele>
        <time>2018-12-03T18:32:53Z</time>
      </trkpt>
      <trkpt lat="60.012907914669" lon="15.788607928319">
        <ele>130.2</ele>
        <time>2018-12-03T18:32:59Z</time>
      </trkpt>
      <trkpt lat="60.012905735375" lon="15.788621926092">
        <ele>130.2</ele>
        <time>2018-12-03T18:33:01Z</time>
      </trkpt>
      <trkpt lat="60.013001121397" lon="15.789033561201">
        <ele>131</ele>
        <time>2018-12-03T18:33:25Z</time>
      </trkpt>
      <trkpt lat="60.01302266288" lon="15.789068597543">
        <ele>131</ele>
        <time>2018-12-03T18:33:27Z</time>
      </trkpt>
      <trkpt lat="60.01306792514" lon="15.789087205361">
        <ele>131.4</ele>
        <time>2018-12-03T18:33:30Z</time>
      </trkpt>
      <trkpt lat="60.01310732007" lon="15.78913841877">
        <ele>132</ele>
        <time>2018-12-03T18:33:34Z</time>
      </trkpt>
      <trkpt lat="60.013192228717" lon="15.789476879892">
        <ele>134</ele>
        <time>2018-12-03T18:33:58Z</time>
      </trkpt>
      <trkpt lat="60.013123161861" lon="15.789595148501">
        <ele>134.4</ele>
        <time>2018-12-03T18:34:01Z</time>
      </trkpt>
      <trkpt lat="60.013053256815" lon="15.789725822322">
        <ele>134.8</ele>
        <time>2018-12-03T18:34:07Z</time>
      </trkpt>
      <trkpt lat="60.013048479132" lon="15.789745855063">
        <ele>134.8</ele>
        <time>2018-12-03T18:34:09Z</time>
      </trkpt>
      <trkpt lat="60.013059207964" lon="15.789900584937">
        <ele>134.8</ele>
        <time>2018-12-03T18:34:21Z</time>
      </trkpt>
      <trkpt lat="60.013041773612" lon="15.789990941819">
        <ele>135</ele>
        <time>2018-12-03T18:34:24Z</time>
      </trkpt>
      <trkpt lat="60.012992236583" lon="15.790116167405">
        <ele>135</ele>
        <time>2018-12-03T18:34:30Z</time>
      </trkpt>
      <trkpt lat="60.012929959066" lon="15.790279782093">
        <ele>134.4</ele>
        <time>2018-12-03T18:34:36Z</time>
      </trkpt>
      <trkpt lat="60.012921577166" lon="15.790298306092">
        <ele>134.4</ele>
        <time>2018-12-03T18:34:37Z</time>
      </trkpt>
      <trkpt lat="60.012911937981" lon="15.790311130399">
        <ele>134.4</ele>
        <time>2018-12-03T18:34:39Z</time>
      </trkpt>
      <trkpt lat="60.01277958778" lon="15.790527048143">
        <ele>133.8</ele>
        <time>2018-12-03T18:34:52Z</time>
      </trkpt>
      <trkpt lat="60.012685878138" lon="15.790562084485">
        <ele>133.2</ele>
        <time>2018-12-03T18:34:58Z</time>
      </trkpt>
      <trkpt lat="60.012636844023" lon="15.790621260699">
        <ele>132.8</ele>
        <time>2018-12-03T18:35:01Z</time>
      </trkpt>
      <trkpt lat="60.01257842218" lon="15.790680856008">
        <ele>132.2</ele>
        <time>2018-12-03T18:35:06Z</time>
      </trkpt>
      <trkpt lat="60.0125180725" lon="15.790675826868">
        <ele>131.6</ele>
        <time>2018-12-03T18:35:10Z</time>
      </trkpt>
      <trkpt lat="60.012415478044" lon="15.790699799102">
        <ele>131.2</ele>
        <time>2018-12-03T18:35:16Z</time>
      </trkpt>
      <trkpt lat="60.012382453358" lon="15.790698877093">
        <ele>131.2</ele>
        <time>2018-12-03T18:35:18Z</time>
      </trkpt>
      <trkpt lat="60.012314727606" lon="15.790676916515">
        <ele>130.8</ele>
        <time>2018-12-03T18:35:23Z</time>
      </trkpt>
      <trkpt lat="60.012301987118" lon="15.790648418055">
        <ele>130.4</ele>
        <time>2018-12-03T18:35:24Z</time>
      </trkpt>
      <trkpt lat="60.012300310738" lon="15.790621260699">
        <ele>130.2</ele>
        <time>2018-12-03T18:35:25Z</time>
      </trkpt>
      <trkpt lat="60.012314811425" lon="15.790420262737">
        <ele>129.8</ele>
        <time>2018-12-03T18:35:31Z</time>
      </trkpt>
      <trkpt lat="60.012320427298" lon="15.790266538691">
        <ele>129.4</ele>
        <time>2018-12-03T18:35:37Z</time>
      </trkpt>
      <trkpt lat="60.012318331823" lon="15.790178025827">
        <ele>129.6</ele>
        <time>2018-12-03T18:35:41Z</time>
      </trkpt>
      <trkpt lat="60.0123336707" lon="15.790164698606">
        <ele>129.4</ele>
        <time>2018-12-03T18:35:44Z</time>
      </trkpt>
      <trkpt lat="60.012315733434" lon="15.790283973043">
        <ele>128.8</ele>
        <time>2018-12-03T18:36:07Z</time>
      </trkpt>
      <trkpt lat="60.012287151155" lon="15.790436104528">
        <ele>129</ele>
        <time>2018-12-03T18:36:13Z</time>
      </trkpt>
      <trkpt lat="60.012293605218" lon="15.790481618245">
        <ele>128.8</ele>
        <time>2018-12-03T18:36:17Z</time>
      </trkpt>
      <trkpt lat="60.01228421749" lon="15.79056669453">
        <ele>128.6</ele>
        <time>2018-12-03T18:36:28Z</time>
      </trkpt>
      <trkpt lat="60.012255551392" lon="15.790888391852">
        <ele>129</ele>
        <time>2018-12-03T18:36:34Z</time>
      </trkpt>
      <trkpt lat="60.012277176694" lon="15.791247388629">
        <ele>129.4</ele>
        <time>2018-12-03T18:36:38Z</time>
      </trkpt>
      <trkpt lat="60.012293018485" lon="15.791906708883">
        <ele>130.6</ele>
        <time>2018-12-03T18:36:44Z</time>
      </trkpt>
      <trkpt lat="60.012319170013" lon="15.792021960008">
        <ele>130.8</ele>
        <time>2018-12-03T18:36:45Z</time>
      </trkpt>
      <trkpt lat="60.012397624597" lon="15.792521018334">
        <ele>131.8</ele>
        <time>2018-12-03T18:36:50Z</time>
      </trkpt>
      <trkpt lat="60.012439617916" lon="15.793313862255">
        <ele>132.6</ele>
        <time>2018-12-03T18:36:56Z</time>
      </trkpt>
      <trkpt lat="60.012437438622" lon="15.793441183316">
        <ele>133</ele>
        <time>2018-12-03T18:36:57Z</time>
      </trkpt>
      <trkpt lat="60.012435343147" lon="15.793580574313">
        <ele>133.2</ele>
        <time>2018-12-03T18:36:58Z</time>
      </trkpt>
      <trkpt lat="60.012409023981" lon="15.793827337449">
        <ele>133.8</ele>
        <time>2018-12-03T18:37:00Z</time>
      </trkpt>
      <trkpt lat="60.012382118082" lon="15.793944097316">
        <ele>134</ele>
        <time>2018-12-03T18:37:01Z</time>
      </trkpt>
      <trkpt lat="60.012309782285" lon="15.7941901899">
        <ele>134.6</ele>
        <time>2018-12-03T18:37:03Z</time>
      </trkpt>
      <trkpt lat="60.012241637438" lon="15.794408035481">
        <ele>135.4</ele>
        <time>2018-12-03T18:37:05Z</time>
      </trkpt>
      <trkpt lat="60.012146586692" lon="15.794790836854">
        <ele>136.4</ele>
        <time>2018-12-03T18:37:08Z</time>
      </trkpt>
      <trkpt lat="60.012113310549" lon="15.794899801554">
        <ele>136.6</ele>
        <time>2018-12-03T18:37:09Z</time>
      </trkpt>
      <trkpt lat="60.012028485721" lon="15.795238849409">
        <ele>137.2</ele>
        <time>2018-12-03T18:37:12Z</time>
      </trkpt>
      <trkpt lat="60.011987749687" lon="15.795344293711">
        <ele>137.2</ele>
        <time>2018-12-03T18:37:13Z</time>
      </trkpt>
      <trkpt lat="60.011708716236" lon="15.795866486081">
        <ele>137.2</ele>
        <time>2018-12-03T18:37:19Z</time>
      </trkpt>
      <trkpt lat="60.011613581671" lon="15.795952400556">
        <ele>136.8</ele>
        <time>2018-12-03T18:37:21Z</time>
      </trkpt>
      <trkpt lat="60.011399256488" lon="15.796065807663">
        <ele>135.6</ele>
        <time>2018-12-03T18:37:26Z</time>
      </trkpt>
      <trkpt lat="60.011228349547" lon="15.796117021072">
        <ele>134.4</ele>
        <time>2018-12-03T18:37:30Z</time>
      </trkpt>
      <trkpt lat="60.01107219475" lon="15.796224896125">
        <ele>134.2</ele>
        <time>2018-12-03T18:37:33Z</time>
      </trkpt>
      <trkpt lat="60.010964403516" lon="15.796242581934">
        <ele>133.8</ele>
        <time>2018-12-03T18:37:35Z</time>
      </trkpt>
      <trkpt lat="60.010772374187" lon="15.79632422164">
        <ele>133.4</ele>
        <time>2018-12-03T18:37:38Z</time>
      </trkpt>
      <trkpt lat="60.010397619438" lon="15.796429414485">
        <ele>132</ele>
        <time>2018-12-03T18:37:43Z</time>
      </trkpt>
      <trkpt lat="60.01020802086" lon="15.79647090489">
        <ele>130.6</ele>
        <time>2018-12-03T18:37:46Z</time>
      </trkpt>
      <trkpt lat="60.010008364002" lon="15.796562016143">
        <ele>129.2</ele>
        <time>2018-12-03T18:37:50Z</time>
      </trkpt>
      <trkpt lat="60.009956060946" lon="15.796591185155">
        <ele>128.2</ele>
        <time>2018-12-03T18:37:52Z</time>
      </trkpt>
      <trkpt lat="60.009882551683" lon="15.796621108538">
        <ele>127.2</ele>
        <time>2018-12-03T18:37:55Z</time>
      </trkpt>
      <trkpt lat="60.009757158459" lon="15.796653211215">
        <ele>126.4</ele>
        <time>2018-12-03T18:38:01Z</time>
      </trkpt>
      <trkpt lat="60.009658084401" lon="15.796702077692">
        <ele>126.2</ele>
        <time>2018-12-03T18:38:07Z</time>
      </trkpt>
      <trkpt lat="60.009583904586" lon="15.796749603065">
        <ele>126</ele>
        <time>2018-12-03T18:38:12Z</time>
      </trkpt>
      <trkpt lat="60.009478711741" lon="15.796842390698">
        <ele>125.6</ele>
        <time>2018-12-03T18:38:18Z</time>
      </trkpt>
      <trkpt lat="60.009202444317" lon="15.797172889015">
        <ele>125.2</ele>
        <time>2018-12-03T18:38:24Z</time>
      </trkpt>
      <trkpt lat="60.009021395277" lon="15.797432895553">
        <ele>124.8</ele>
        <time>2018-12-03T18:38:27Z</time>
      </trkpt>
      <trkpt lat="60.00888954799" lon="15.797613609317">
        <ele>124.4</ele>
        <time>2018-12-03T18:38:29Z</time>
      </trkpt>
      <trkpt lat="60.008698524489" lon="15.797886943076">
        <ele>123.8</ele>
        <time>2018-12-03T18:38:32Z</time>
      </trkpt>
      <trkpt lat="60.008307341216" lon="15.798419948097">
        <ele>123</ele>
        <time>2018-12-03T18:38:38Z</time>
      </trkpt>
      <trkpt lat="60.008130399307" lon="15.798660927722">
        <ele>122.6</ele>
        <time>2018-12-03T18:38:41Z</time>
      </trkpt>
      <trkpt lat="60.007874835176" lon="15.799005423812">
        <ele>121.4</ele>
        <time>2018-12-03T18:38:46Z</time>
      </trkpt>
      <trkpt lat="60.007806355053" lon="15.799103743499">
        <ele>120.2</ele>
        <time>2018-12-03T18:38:49Z</time>
      </trkpt>
      <trkpt lat="60.007778778602" lon="15.799141964963">
        <ele>119.2</ele>
        <time>2018-12-03T18:38:51Z</time>
      </trkpt>
      <trkpt lat="60.007688673177" lon="15.799213378751">
        <ele>118</ele>
        <time>2018-12-03T18:38:56Z</time>
      </trkpt>
      <trkpt lat="60.007586413997" lon="15.799308010402">
        <ele>117.4</ele>
        <time>2018-12-03T18:39:02Z</time>
      </trkpt>
      <trkpt lat="60.007488513405" lon="15.799392751411">
        <ele>117</ele>
        <time>2018-12-03T18:39:06Z</time>
      </trkpt>
      <trkpt lat="60.007141167469" lon="15.799562401067">
        <ele>116.8</ele>
        <time>2018-12-03T18:39:12Z</time>
      </trkpt>
      <trkpt lat="60.006828522599" lon="15.79966189422">
        <ele>115.8</ele>
        <time>2018-12-03T18:39:16Z</time>
      </trkpt>
      <trkpt lat="60.006343797322" lon="15.799919553826">
        <ele>114.8</ele>
        <time>2018-12-03T18:39:22Z</time>
      </trkpt>
      <trkpt lat="60.005941717579" lon="15.800218284742">
        <ele>115</ele>
        <time>2018-12-03T18:39:28Z</time>
      </trkpt>
      <trkpt lat="60.005664276689" lon="15.800396232479">
        <ele>115.2</ele>
        <time>2018-12-03T18:39:34Z</time>
      </trkpt>
      <trkpt lat="60.00562647432" lon="15.80043051445">
        <ele>114.6</ele>
        <time>2018-12-03T18:39:37Z</time>
      </trkpt>
      <trkpt lat="60.005606022484" lon="15.800706614236">
        <ele>114.4</ele>
        <time>2018-12-03T18:39:43Z</time>
      </trkpt>
      <trkpt lat="60.005652793486" lon="15.801056307104">
        <ele>115.4</ele>
        <time>2018-12-03T18:39:48Z</time>
      </trkpt>
      <trkpt lat="60.005647596708" lon="15.801247917338">
        <ele>116.2</ele>
        <time>2018-12-03T18:39:50Z</time>
      </trkpt>
      <trkpt lat="60.005586744114" lon="15.801564334063">
        <ele>117.4</ele>
        <time>2018-12-03T18:39:53Z</time>
      </trkpt>
      <trkpt lat="60.005530166289" lon="15.801805062231">
        <ele>118.4</ele>
        <time>2018-12-03T18:39:55Z</time>
      </trkpt>
      <trkpt lat="60.005483479106" lon="15.802080240008">
        <ele>119.4</ele>
        <time>2018-12-03T18:39:57Z</time>
      </trkpt>
      <trkpt lat="60.005441401968" lon="15.802555829014">
        <ele>120.4</ele>
        <time>2018-12-03T18:40:00Z</time>
      </trkpt>
      <trkpt lat="60.005433774439" lon="15.803144825127">
        <ele>121.8</ele>
        <time>2018-12-03T18:40:04Z</time>
      </trkpt>
      <trkpt lat="60.005460596519" lon="15.803390079521">
        <ele>122.2</ele>
        <time>2018-12-03T18:40:06Z</time>
      </trkpt>
      <trkpt lat="60.005558497111" lon="15.803893412616">
        <ele>122.8</ele>
        <time>2018-12-03T18:40:10Z</time>
      </trkpt>
      <trkpt lat="60.005778019072" lon="15.804889266155">
        <ele>123</ele>
        <time>2018-12-03T18:40:16Z</time>
      </trkpt>
      <trkpt lat="60.005850354869" lon="15.805239629575">
        <ele>121.6</ele>
        <time>2018-12-03T18:40:18Z</time>
      </trkpt>
      <trkpt lat="60.005888743971" lon="15.805409111593">
        <ele>120.4</ele>
        <time>2018-12-03T18:40:19Z</time>
      </trkpt>
      <trkpt lat="60.005953033144" lon="15.805729635449">
        <ele>119.4</ele>
        <time>2018-12-03T18:40:21Z</time>
      </trkpt>
      <trkpt lat="60.005988153305" lon="15.806039849568">
        <ele>119</ele>
        <time>2018-12-03T18:40:23Z</time>
      </trkpt>
      <trkpt lat="60.00597683774" lon="15.806333299887">
        <ele>118.8</ele>
        <time>2018-12-03T18:40:25Z</time>
      </trkpt>
      <trkpt lat="60.005889414523" lon="15.80688709202">
        <ele>118.4</ele>
        <time>2018-12-03T18:40:29Z</time>
      </trkpt>
      <trkpt lat="60.00577986309" lon="15.80769845994">
        <ele>118.2</ele>
        <time>2018-12-03T18:40:35Z</time>
      </trkpt>
      <trkpt lat="60.005656816798" lon="15.808451825112">
        <ele>118.2</ele>
        <time>2018-12-03T18:40:41Z</time>
      </trkpt>
      <trkpt lat="60.005537458542" lon="15.809318597391">
        <ele>119</ele>
        <time>2018-12-03T18:40:47Z</time>
      </trkpt>
      <trkpt lat="60.005450286782" lon="15.809907761142">
        <ele>119</ele>
        <time>2018-12-03T18:40:53Z</time>
      </trkpt>
      <trkpt lat="60.005419022295" lon="15.809984958441">
        <ele>118.6</ele>
        <time>2018-12-03T18:40:55Z</time>
      </trkpt>
      <trkpt lat="60.005363869393" lon="15.80998671864">
        <ele>118.4</ele>
        <time>2018-12-03T18:40:57Z</time>
      </trkpt>
      <trkpt lat="60.005023731891" lon="15.809804160858">
        <ele>117.8</ele>
        <time>2018-12-03T18:41:03Z</time>
      </trkpt>
      <trkpt lat="60.0047899607" lon="15.809680108738">
        <ele>117.2</ele>
        <time>2018-12-03T18:41:06Z</time>
      </trkpt>
      <trkpt lat="60.004392574821" lon="15.809466035012">
        <ele>116</ele>
        <time>2018-12-03T18:41:11Z</time>
      </trkpt>
      <trkpt lat="60.004067021825" lon="15.809278951004">
        <ele>114.8</ele>
        <time>2018-12-03T18:41:15Z</time>
      </trkpt>
      <trkpt lat="60.003702241537" lon="15.809109049891">
        <ele>113.6</ele>
        <time>2018-12-03T18:41:19Z</time>
      </trkpt>
      <trkpt lat="60.003449611071" lon="15.808960606442">
        <ele>112.6</ele>
        <time>2018-12-03T18:41:22Z</time>
      </trkpt>
      <trkpt lat="60.003213492948" lon="15.808825406395">
        <ele>111.4</ele>
        <time>2018-12-03T18:41:25Z</time>
      </trkpt>
      <trkpt lat="60.002914762032" lon="15.808681405353">
        <ele>110.2</ele>
        <time>2018-12-03T18:41:29Z</time>
      </trkpt>
      <trkpt lat="60.002643859024" lon="15.808494908078">
        <ele>109.2</ele>
        <time>2018-12-03T18:41:33Z</time>
      </trkpt>
      <trkpt lat="60.00239860463" lon="15.808357864013">
        <ele>108.2</ele>
        <time>2018-12-03T18:41:37Z</time>
      </trkpt>
      <trkpt lat="60.002356443673" lon="15.8083388371">
        <ele>107.8</ele>
        <time>2018-12-03T18:41:38Z</time>
      </trkpt>
      <trkpt lat="60.002318389847" lon="15.808342692774">
        <ele>107.6</ele>
        <time>2018-12-03T18:41:39Z</time>
      </trkpt>
      <trkpt lat="60.002262231117" lon="15.808391894527">
        <ele>107</ele>
        <time>2018-12-03T18:41:41Z</time>
      </trkpt>
      <trkpt lat="60.002245048222" lon="15.808435145131">
        <ele>106.8</ele>
        <time>2018-12-03T18:41:42Z</time>
      </trkpt>
      <trkpt lat="60.002213448459" lon="15.808735552427">
        <ele>106</ele>
        <time>2018-12-03T18:41:48Z</time>
      </trkpt>
      <trkpt lat="60.002109093804" lon="15.809317591563">
        <ele>106</ele>
        <time>2018-12-03T18:41:54Z</time>
      </trkpt>
      <trkpt lat="60.001916980656" lon="15.809986970097">
        <ele>105.8</ele>
        <time>2018-12-03T18:42:00Z</time>
      </trkpt>
      <trkpt lat="60.001745403163" lon="15.810427355123">
        <ele>105.8</ele>
        <time>2018-12-03T18:42:04Z</time>
      </trkpt>
      <trkpt lat="60.001376180468" lon="15.810990702622">
        <ele>106.2</ele>
        <time>2018-12-03T18:42:10Z</time>
      </trkpt>
      <trkpt lat="60.000948619749" lon="15.811394961659">
        <ele>106.8</ele>
        <time>2018-12-03T18:42:16Z</time>
      </trkpt>
      <trkpt lat="60.000806462725" lon="15.811489341853">
        <ele>107</ele>
        <time>2018-12-03T18:42:18Z</time>
      </trkpt>
      <trkpt lat="60.000437407668" lon="15.811791509348">
        <ele>107</ele>
        <time>2018-12-03T18:42:24Z</time>
      </trkpt>
      <trkpt lat="60.000317295041" lon="15.811908520672">
        <ele>106.6</ele>
        <time>2018-12-03T18:42:30Z</time>
      </trkpt>
      <trkpt lat="60.000197014776" lon="15.812014551707">
        <ele>106.4</ele>
        <time>2018-12-03T18:42:36Z</time>
      </trkpt>
      <trkpt lat="60.000121493857" lon="15.812089402074">
        <ele>106.4</ele>
        <time>2018-12-03T18:42:38Z</time>
      </trkpt>
      <trkpt lat="59.999770543704" lon="15.812460552606">
        <ele>106.6</ele>
        <time>2018-12-03T18:42:44Z</time>
      </trkpt>
      <trkpt lat="59.999380366259" lon="15.812884006194">
        <ele>107</ele>
        <time>2018-12-03T18:42:50Z</time>
      </trkpt>
      <trkpt lat="59.999015585971" lon="15.813371162222">
        <ele>106.6</ele>
        <time>2018-12-03T18:42:56Z</time>
      </trkpt>
      <trkpt lat="59.998886001797" lon="15.813542572077">
        <ele>105.8</ele>
        <time>2018-12-03T18:42:58Z</time>
      </trkpt>
      <trkpt lat="59.998746275524" lon="15.813734182311">
        <ele>104.8</ele>
        <time>2018-12-03T18:43:00Z</time>
      </trkpt>
      <trkpt lat="59.99859322203" lon="15.813926546916">
        <ele>103.6</ele>
        <time>2018-12-03T18:43:02Z</time>
      </trkpt>
      <trkpt lat="59.998435893767" lon="15.814123270109">
        <ele>102.2</ele>
        <time>2018-12-03T18:43:04Z</time>
      </trkpt>
      <trkpt lat="59.998304381756" lon="15.814297110715">
        <ele>100.8</ele>
        <time>2018-12-03T18:43:06Z</time>
      </trkpt>
      <trkpt lat="59.998185442595" lon="15.814457875557">
        <ele>99.6</ele>
        <time>2018-12-03T18:43:08Z</time>
      </trkpt>
      <trkpt lat="59.998054601136" lon="15.81460514554">
        <ele>98.2</ele>
        <time>2018-12-03T18:43:11Z</time>
      </trkpt>
      <trkpt lat="59.997894087751" lon="15.814611180508">
        <ele>97</ele>
        <time>2018-12-03T18:43:15Z</time>
      </trkpt>
      <trkpt lat="59.997742040085" lon="15.814886190647">
        <ele>96.6</ele>
        <time>2018-12-03T18:43:21Z</time>
      </trkpt>
      <trkpt lat="59.99771731348" lon="15.814960202824">
        <ele>96.6</ele>
        <time>2018-12-03T18:43:22Z</time>
      </trkpt>
      <trkpt lat="59.997644474769" lon="15.815105880246">
        <ele>96.4</ele>
        <time>2018-12-03T18:43:24Z</time>
      </trkpt>
      <trkpt lat="59.997388910638" lon="15.815435540373">
        <ele>96</ele>
        <time>2018-12-03T18:43:29Z</time>
      </trkpt>
      <trkpt lat="59.997300649231" lon="15.815558083751">
        <ele>95.6</ele>
        <time>2018-12-03T18:43:31Z</time>
      </trkpt>
      <trkpt lat="59.997246669795" lon="15.815731840538">
        <ele>95.4</ele>
        <time>2018-12-03T18:43:34Z</time>
      </trkpt>
      <trkpt lat="59.99730995314" lon="15.815955218173">
        <ele>95.2</ele>
        <time>2018-12-03T18:43:40Z</time>
      </trkpt>
      <trkpt lat="59.99735437721" lon="15.81604515596">
        <ele>95</ele>
        <time>2018-12-03T18:43:42Z</time>
      </trkpt>
      <trkpt lat="59.997485889221" lon="15.816386047833">
        <ele>93.8</ele>
        <time>2018-12-03T18:43:47Z</time>
      </trkpt>
      <trkpt lat="59.997546071263" lon="15.81650029313">
        <ele>93.4</ele>
        <time>2018-12-03T18:43:49Z</time>
      </trkpt>
      <trkpt lat="59.99765780199" lon="15.816635576996">
        <ele>92.6</ele>
        <time>2018-12-03T18:43:52Z</time>
      </trkpt>
      <trkpt lat="59.997816387538" lon="15.816760718763">
        <ele>91.4</ele>
        <time>2018-12-03T18:43:56Z</time>
      </trkpt>
      <trkpt lat="59.997928369722" lon="15.81684143646">
        <ele>90.4</ele>
        <time>2018-12-03T18:44:00Z</time>
      </trkpt>
      <trkpt lat="59.997995676379" lon="15.816861133925">
        <ele>89.8</ele>
        <time>2018-12-03T18:44:06Z</time>
      </trkpt>
      <trkpt lat="59.998064827054" lon="15.816917376474">
        <ele>89.8</ele>
        <time>2018-12-03T18:44:12Z</time>
      </trkpt>
      <trkpt lat="59.998194327409" lon="15.817065149371">
        <ele>89.4</ele>
        <time>2018-12-03T18:44:18Z</time>
      </trkpt>
      <trkpt lat="59.998224837525" lon="15.817103370835">
        <ele>89.4</ele>
        <time>2018-12-03T18:44:19Z</time>
      </trkpt>
      <trkpt lat="59.998414268465" lon="15.817282240581">
        <ele>89.2</ele>
        <time>2018-12-03T18:44:25Z</time>
      </trkpt>
      <trkpt lat="59.99848761009" lon="15.81731836657">
        <ele>88.6</ele>
        <time>2018-12-03T18:44:31Z</time>
      </trkpt>
      <trkpt lat="59.998511749962" lon="15.817339153682">
        <ele>88.4</ele>
        <time>2018-12-03T18:44:34Z</time>
      </trkpt>
      <trkpt lat="59.998511749962" lon="15.817339153682">
        <ele>88.4</ele>
        <time>2018-12-03T18:44:35Z</time>
      </trkpt>
      <trkpt lat="59.998563131009" lon="15.817404616321">
        <ele>88.4</ele>
        <time>2018-12-03T18:44:38Z</time>
      </trkpt>
      <trkpt lat="59.998631024399" lon="15.817467061476">
        <ele>88.4</ele>
        <time>2018-12-03T18:44:40Z</time>
      </trkpt>
      <trkpt lat="59.998880972657" lon="15.81769806664">
        <ele>88.6</ele>
        <time>2018-12-03T18:44:46Z</time>
      </trkpt>
      <trkpt lat="59.998992954841" lon="15.817804600589">
        <ele>88.4</ele>
        <time>2018-12-03T18:44:52Z</time>
      </trkpt>
      <trkpt lat="59.99904081549" lon="15.817854556713">
        <ele>88</ele>
        <time>2018-12-03T18:44:58Z</time>
      </trkpt>
      <trkpt lat="59.99904081549" lon="15.817854556713">
        <ele>88</ele>
        <time>2018-12-03T18:44:59Z</time>
      </trkpt>
      <trkpt lat="59.999104015016" lon="15.817905267208">
        <ele>87.8</ele>
        <time>2018-12-03T18:45:04Z</time>
      </trkpt>
      <trkpt lat="59.999159587013" lon="15.817952457305">
        <ele>88</ele>
        <time>2018-12-03T18:45:06Z</time>
      </trkpt>
      <trkpt lat="59.999367793409" lon="15.81814146915">
        <ele>88</ele>
        <time>2018-12-03T18:45:12Z</time>
      </trkpt>
      <trkpt lat="59.99952528931" lon="15.81827809412">
        <ele>87.8</ele>
        <time>2018-12-03T18:45:18Z</time>
      </trkpt>
      <trkpt lat="59.999588405017" lon="15.818335174859">
        <ele>87.4</ele>
        <time>2018-12-03T18:45:24Z</time>
      </trkpt>
      <trkpt lat="59.999594775261" lon="15.818341712741">
        <ele>87.4</ele>
        <time>2018-12-03T18:45:25Z</time>
      </trkpt>
      <trkpt lat="59.999716480449" lon="15.818472386562">
        <ele>87.2</ele>
        <time>2018-12-03T18:45:31Z</time>
      </trkpt>
      <trkpt lat="59.999952011839" lon="15.818705738658">
        <ele>87.4</ele>
        <time>2018-12-03T18:45:37Z</time>
      </trkpt>
      <trkpt lat="60.000060808901" lon="15.818791485495">
        <ele>86.8</ele>
        <time>2018-12-03T18:45:43Z</time>
      </trkpt>
      <trkpt lat="60.000088720628" lon="15.818795341169">
        <ele>86.4</ele>
        <time>2018-12-03T18:45:48Z</time>
      </trkpt>
      <trkpt lat="60.000141778055" lon="15.81886063617">
        <ele>86.6</ele>
        <time>2018-12-03T18:45:56Z</time>
      </trkpt>
      <trkpt lat="60.000293574264" lon="15.819022993573">
        <ele>86.6</ele>
        <time>2018-12-03T18:46:02Z</time>
      </trkpt>
      <trkpt lat="60.000375046332" lon="15.81915400267">
        <ele>86.6</ele>
        <time>2018-12-03T18:46:07Z</time>
      </trkpt>
      <trkpt lat="60.000408993027" lon="15.819122486726">
        <ele>86.4</ele>
        <time>2018-12-03T18:46:09Z</time>
      </trkpt>
      <trkpt lat="60.000467666327" lon="15.819030285826">
        <ele>86.4</ele>
        <time>2018-12-03T18:46:15Z</time>
      </trkpt>
      <trkpt lat="60.000465989947" lon="15.819035314966">
        <ele>86.4</ele>
        <time>2018-12-03T18:46:16Z</time>
      </trkpt>
      <trkpt lat="60.000307907313" lon="15.819000194805">
        <ele>87</ele>
        <time>2018-12-03T18:46:37Z</time>
      </trkpt>
      <trkpt lat="60.000269015297" lon="15.818971193431">
        <ele>86.8</ele>
        <time>2018-12-03T18:46:40Z</time>
      </trkpt>
      <trkpt lat="60.000203971753" lon="15.818909754104">
        <ele>86.8</ele>
        <time>2018-12-03T18:46:46Z</time>
      </trkpt>
      <trkpt lat="60.00013465344" lon="15.81882710857">
        <ele>87</ele>
        <time>2018-12-03T18:46:52Z</time>
      </trkpt>
      <trkpt lat="60.000112776681" lon="15.818807411105">
        <ele>86.8</ele>
        <time>2018-12-03T18:46:57Z</time>
      </trkpt>
      <trkpt lat="60.000042955454" lon="15.818733901842">
        <ele>87.8</ele>
        <time>2018-12-03T18:48:05Z</time>
      </trkpt>
      <trkpt lat="59.999948156165" lon="15.818618818355">
        <ele>87.2</ele>
        <time>2018-12-03T18:48:11Z</time>
      </trkpt>
      <trkpt lat="59.999847405727" lon="15.818532736242">
        <ele>87.2</ele>
        <time>2018-12-03T18:48:17Z</time>
      </trkpt>
      <trkpt lat="59.999788229513" lon="15.818488060715">
        <ele>87.2</ele>
        <time>2018-12-03T18:48:23Z</time>
      </trkpt>
      <trkpt lat="59.999740955597" lon="15.818450174527">
        <ele>87.4</ele>
        <time>2018-12-03T18:48:26Z</time>
      </trkpt>
      <trkpt lat="59.999652358914" lon="15.81836107493">
        <ele>87.6</ele>
        <time>2018-12-03T18:48:32Z</time>
      </trkpt>
      <trkpt lat="59.999568707552" lon="15.818289074409">
        <ele>87.4</ele>
        <time>2018-12-03T18:48:38Z</time>
      </trkpt>
      <trkpt lat="59.999503328732" lon="15.818266694736">
        <ele>87.6</ele>
        <time>2018-12-03T18:48:43Z</time>
      </trkpt>
      <trkpt lat="59.99944649945" lon="15.818225204331">
        <ele>87.4</ele>
        <time>2018-12-03T18:48:49Z</time>
      </trkpt>
      <trkpt lat="59.999428562184" lon="15.818213888766">
        <ele>87.6</ele>
        <time>2018-12-03T18:48:50Z</time>
      </trkpt>
      <trkpt lat="59.999325883909" lon="15.818152197982">
        <ele>88</ele>
        <time>2018-12-03T18:48:56Z</time>
      </trkpt>
      <trkpt lat="59.999249608619" lon="15.818024374007">
        <ele>87.8</ele>
        <time>2018-12-03T18:49:02Z</time>
      </trkpt>
      <trkpt lat="59.999172830415" lon="15.817978944109">
        <ele>88.2</ele>
        <time>2018-12-03T18:49:07Z</time>
      </trkpt>
      <trkpt lat="59.99914223648" lon="15.817970897485">
        <ele>88.2</ele>
        <time>2018-12-03T18:49:10Z</time>
      </trkpt>
      <trkpt lat="59.999096303668" lon="15.818029570785">
        <ele>88.4</ele>
        <time>2018-12-03T18:49:16Z</time>
      </trkpt>
      <trkpt lat="59.999067302294" lon="15.817909961072">
        <ele>88.2</ele>
        <time>2018-12-03T18:49:20Z</time>
      </trkpt>
      <trkpt lat="59.999023381138" lon="15.817756907578">
        <ele>88.2</ele>
        <time>2018-12-03T18:49:26Z</time>
      </trkpt>
      <trkpt lat="59.999016591799" lon="15.817755734112">
        <ele>88.2</ele>
        <time>2018-12-03T18:49:28Z</time>
      </trkpt>
      <trkpt lat="59.998878625725" lon="15.8176762737">
        <ele>88</ele>
        <time>2018-12-03T18:50:35Z</time>
      </trkpt>
      <trkpt lat="59.998852725654" lon="15.817647356145">
        <ele>88.4</ele>
        <time>2018-12-03T18:50:37Z</time>
      </trkpt>
      <trkpt lat="59.998823221366" lon="15.817630005612">
        <ele>88.8</ele>
        <time>2018-12-03T18:50:39Z</time>
      </trkpt>
      <trkpt lat="59.998733451217" lon="15.817540235463">
        <ele>88.6</ele>
        <time>2018-12-03T18:50:45Z</time>
      </trkpt>
      <trkpt lat="59.998648374932" lon="15.817481394525">
        <ele>88.6</ele>
        <time>2018-12-03T18:50:51Z</time>
      </trkpt>
      <trkpt lat="59.998567573416" lon="15.817406544158">
        <ele>89.2</ele>
        <time>2018-12-03T18:50:57Z</time>
      </trkpt>
      <trkpt lat="59.998493142144" lon="15.817318618027">
        <ele>89</ele>
        <time>2018-12-03T18:51:03Z</time>
      </trkpt>
      <trkpt lat="59.998404377823" lon="15.817258771261">
        <ele>89</ele>
        <time>2018-12-03T18:51:09Z</time>
      </trkpt>
      <trkpt lat="59.998314440036" lon="15.817234882846">
        <ele>89.2</ele>
        <time>2018-12-03T18:51:15Z</time>
      </trkpt>
      <trkpt lat="59.998238835298" lon="15.81714653762">
        <ele>89.8</ele>
        <time>2018-12-03T18:51:21Z</time>
      </trkpt>
      <trkpt lat="59.998126769295" lon="15.817031118857">
        <ele>89.6</ele>
        <time>2018-12-03T18:51:27Z</time>
      </trkpt>
      <trkpt lat="59.998069018004" lon="15.81695710668">
        <ele>90</ele>
        <time>2018-12-03T18:51:32Z</time>
      </trkpt>
      <trkpt lat="59.998014703292" lon="15.816888794195">
        <ele>90.4</ele>
        <time>2018-12-03T18:51:38Z</time>
      </trkpt>
      <trkpt lat="59.99801654731" lon="15.816905222719">
        <ele>90.4</ele>
        <time>2018-12-03T18:51:41Z</time>
      </trkpt>
      <trkpt lat="59.997909342809" lon="15.816897176095">
        <ele>90.4</ele>
        <time>2018-12-03T18:53:12Z</time>
      </trkpt>
      <trkpt lat="59.997794091684" lon="15.816799443141">
        <ele>91.2</ele>
        <time>2018-12-03T18:53:16Z</time>
      </trkpt>
      <trkpt lat="59.9975815267" lon="15.81659919955">
        <ele>91.8</ele>
        <time>2018-12-03T18:53:22Z</time>
      </trkpt>
      <trkpt lat="59.997513046577" lon="15.816494677257">
        <ele>92</ele>
        <time>2018-12-03T18:53:24Z</time>
      </trkpt>
      <trkpt lat="59.997482955556" lon="15.81642988517">
        <ele>92.4</ele>
        <time>2018-12-03T18:53:25Z</time>
      </trkpt>
      <trkpt lat="59.997368039707" lon="15.816091172591">
        <ele>93.4</ele>
        <time>2018-12-03T18:53:29Z</time>
      </trkpt>
      <trkpt lat="59.997255554609" lon="15.815774252952">
        <ele>94.8</ele>
        <time>2018-12-03T18:53:33Z</time>
      </trkpt>
      <trkpt lat="59.997243233216" lon="15.815585492564">
        <ele>95.6</ele>
        <time>2018-12-03T18:53:38Z</time>
      </trkpt>
      <trkpt lat="59.997427551197" lon="15.815373849589">
        <ele>95.8</ele>
        <time>2018-12-03T18:53:44Z</time>
      </trkpt>
      <trkpt lat="59.997527798721" lon="15.81524133175">
        <ele>95.8</ele>
        <time>2018-12-03T18:53:46Z</time>
      </trkpt>
      <trkpt lat="59.997768023975" lon="15.814963974679">
        <ele>96.6</ele>
        <time>2018-12-03T18:53:51Z</time>
      </trkpt>
      <trkpt lat="59.997881263444" lon="15.814879904222">
        <ele>97</ele>
        <time>2018-12-03T18:53:54Z</time>
      </trkpt>
      <trkpt lat="59.997903475479" lon="15.814827852623">
        <ele>97</ele>
        <time>2018-12-03T18:53:55Z</time>
      </trkpt>
      <trkpt lat="59.997907079696" lon="15.814702291761">
        <ele>97.2</ele>
        <time>2018-12-03T18:53:57Z</time>
      </trkpt>
      <trkpt lat="59.997777830798" lon="15.814505903844">
        <ele>97.4</ele>
        <time>2018-12-03T18:54:01Z</time>
      </trkpt>
      <trkpt lat="59.997702142241" lon="15.814354610549">
        <ele>97.4</ele>
        <time>2018-12-03T18:54:03Z</time>
      </trkpt>
      <trkpt lat="59.997246837433" lon="15.813198243625">
        <ele>96.4</ele>
        <time>2018-12-03T18:54:14Z</time>
      </trkpt>
      <trkpt lat="59.997144913529" lon="15.812967992832">
        <ele>96</ele>
        <time>2018-12-03T18:54:17Z</time>
      </trkpt>
      <trkpt lat="59.997053886095" lon="15.812807144171">
        <ele>95</ele>
        <time>2018-12-03T18:54:22Z</time>
      </trkpt>
      <trkpt lat="59.996884320258" lon="15.812367681154">
        <ele>95</ele>
        <time>2018-12-03T18:54:28Z</time>
      </trkpt>
      <trkpt lat="59.996573603225" lon="15.811555977958">
        <ele>95.4</ele>
        <time>2018-12-03T18:54:34Z</time>
      </trkpt>
      <trkpt lat="59.996292809575" lon="15.810857933326">
        <ele>96</ele>
        <time>2018-12-03T18:54:39Z</time>
      </trkpt>
      <trkpt lat="59.996078484392" lon="15.810308751238">
        <ele>96</ele>
        <time>2018-12-03T18:54:45Z</time>
      </trkpt>
      <trkpt lat="59.996064905714" lon="15.810285281918">
        <ele>95.8</ele>
        <time>2018-12-03T18:54:47Z</time>
      </trkpt>
      <trkpt lat="59.995998856342" lon="15.81037647699">
        <ele>95.6</ele>
        <time>2018-12-03T18:55:09Z</time>
      </trkpt>
      <trkpt lat="59.995930711495" lon="15.810413105893">
        <ele>96</ele>
        <time>2018-12-03T18:55:14Z</time>
      </trkpt>
      <trkpt lat="59.995865584132" lon="15.810536655099">
        <ele>96.4</ele>
        <time>2018-12-03T18:55:20Z</time>
      </trkpt>
      <trkpt lat="59.995823590813" lon="15.810599016435">
        <ele>96.6</ele>
        <time>2018-12-03T18:55:24Z</time>
      </trkpt>
      <trkpt lat="59.995799367122" lon="15.810629107456">
        <ele>96.2</ele>
        <time>2018-12-03T18:55:27Z</time>
      </trkpt>
      <trkpt lat="59.995710099887" lon="15.810675543182">
        <ele>96</ele>
        <time>2018-12-03T18:55:33Z</time>
      </trkpt>
      <trkpt lat="59.995693839001" lon="15.810673028612">
        <ele>96.2</ele>
        <time>2018-12-03T18:55:34Z</time>
      </trkpt>
      <trkpt lat="59.995574732202" lon="15.810600022263">
        <ele>95.6</ele>
        <time>2018-12-03T18:55:40Z</time>
      </trkpt>
      <trkpt lat="59.995506084441" lon="15.81053573309">
        <ele>95.8</ele>
        <time>2018-12-03T18:55:46Z</time>
      </trkpt>
      <trkpt lat="59.995465767502" lon="15.81053321852">
        <ele>96</ele>
        <time>2018-12-03T18:55:52Z</time>
      </trkpt>
      <trkpt lat="59.995458307611" lon="15.810549060311">
        <ele>96</ele>
        <time>2018-12-03T18:55:54Z</time>
      </trkpt>
    </trkseg>
  </trk>
</gpx>